<?xml version='1.0' encoding='UTF-8'?>
<gpx version="1.1" creator="https://www.komoot.de" xmlns="http://www.topografix.com/GPX/1/1" xmlns:xsi="http://www.w3.org/2001/XMLSchema-instance" xsi:schemaLocation="http://www.topografix.com/GPX/1/1 http://www.topografix.com/GPX/1/1/gpx.xsd">
  <metadata>
    <name>05.09.2026 Köln Kulinarische Schnitzeljagd</name>
    <author>
      <link href="https://www.komoot.de">
        <text>komoot</text>
        <type>text/html</type>
      </link>
    </author>
  </metadata>
  <wpt lat="50.936567" lon="6.936549">
    <name>Moxxacaffe</name>
    <desc></desc>
    <sym>Flag, Blue</sym>
  </wpt>
  <wpt lat="50.939161" lon="6.932535">
    <name>Hennes Finest Pfeffer</name>
    <sym>Flag, Blue</sym>
  </wpt>
  <wpt lat="50.923439" lon="6.925059">
    <name>Cafe Kor</name>
    <sym>Flag, Blue</sym>
  </wpt>
  <wpt lat="50.929033" lon="6.940690">
    <name>Pita Pocket</name>
    <desc></desc>
    <sym>Flag, Blue</sym>
  </wpt>
  <wpt lat="50.923058" lon="6.940345">
    <name>Bahnunterführung Eifelwall</name>
    <sym>Bridge</sym>
  </wpt>
  <wpt lat="50.919007" lon="6.960218">
    <name>Bierlager</name>
    <desc></desc>
    <sym>Flag, Blue</sym>
  </wpt>
  <wpt lat="50.929655" lon="6.940377">
    <name>Dongwu Chinese Kitchen</name>
    <sym>Flag, Blue</sym>
  </wpt>
  <wpt lat="50.936209" lon="6.940975">
    <name>Peters am Hahnentor</name>
    <desc></desc>
    <sym>Flag, Blue</sym>
  </wpt>
  <wpt lat="50.949353" lon="6.957330">
    <name>Kuletsch</name>
    <desc></desc>
    <sym>Flag, Blue</sym>
  </wpt>
  <wpt lat="50.966509" lon="6.963457">
    <name>Naturburschen</name>
    <sym>Flag, Blue</sym>
  </wpt>
  <wpt lat="50.968797" lon="6.945882">
    <name>Le Caveau</name>
    <desc></desc>
    <sym>Flag, Blue</sym>
  </wpt>
  <wpt lat="50.966475" lon="6.940234">
    <name>Pittermanns Destillerie</name>
    <desc></desc>
    <sym>Flag, Blue</sym>
  </wpt>
  <wpt lat="50.965910" lon="6.925767">
    <name>Trimm-Dich-Pfad Bilderstöckchen</name>
    <sym>Picnic Area</sym>
  </wpt>
  <wpt lat="50.960443" lon="6.902884">
    <name>Südhang</name>
    <desc></desc>
    <sym>Flag, Blue</sym>
  </wpt>
  <wpt lat="50.936987" lon="6.902123">
    <name>Baron Imbiss-Kult</name>
    <desc></desc>
    <sym>Flag, Blue</sym>
  </wpt>
  <trk>
    <name>05.09.2026 Köln Kulinarische Schnitzeljagd</name>
    <type>touring_bicycle</type>
    <trkseg>
      <trkpt lat="50.936567" lon="6.936549">
        <ele>55.362315</ele>
        <time>2026-08-28T12:39:01.955Z</time>
      </trkpt>
      <trkpt lat="50.936559" lon="6.937252">
        <ele>55.362315</ele>
        <time>2026-08-28T12:39:32.745Z</time>
      </trkpt>
      <trkpt lat="50.936489" lon="6.937039">
        <ele>55.362315</ele>
        <time>2026-08-28T12:39:37.378Z</time>
      </trkpt>
      <trkpt lat="50.936513" lon="6.935388">
        <ele>55.394961</ele>
        <time>2026-08-28T12:40:07.921Z</time>
      </trkpt>
      <trkpt lat="50.936526" lon="6.934584">
        <ele>55.417446</ele>
        <time>2026-08-28T12:40:21.410Z</time>
      </trkpt>
      <trkpt lat="50.936575" lon="6.932829">
        <ele>55.294984</ele>
        <time>2026-08-28T12:40:48.370Z</time>
      </trkpt>
      <trkpt lat="50.936575" lon="6.932721">
        <ele>55.276814</ele>
        <time>2026-08-28T12:40:50.030Z</time>
      </trkpt>
      <trkpt lat="50.936639" lon="6.932720">
        <ele>55.259727</ele>
        <time>2026-08-28T12:40:51.620Z</time>
      </trkpt>
      <trkpt lat="50.936823" lon="6.932722">
        <ele>55.210603</ele>
        <time>2026-08-28T12:40:56.228Z</time>
      </trkpt>
      <trkpt lat="50.937519" lon="6.932735">
        <ele>55.024779</ele>
        <time>2026-08-28T12:41:14.275Z</time>
      </trkpt>
      <trkpt lat="50.938194" lon="6.932740">
        <ele>54.883804</ele>
        <time>2026-08-28T12:41:32.912Z</time>
      </trkpt>
      <trkpt lat="50.938803" lon="6.932742">
        <ele>54.775572</ele>
        <time>2026-08-28T12:41:49.070Z</time>
      </trkpt>
      <trkpt lat="50.939864" lon="6.932729">
        <ele>54.603680</ele>
        <time>2026-08-28T12:42:15.331Z</time>
      </trkpt>
      <trkpt lat="50.940059" lon="6.932773">
        <ele>54.579239</ele>
        <time>2026-08-28T12:42:20.088Z</time>
      </trkpt>
      <trkpt lat="50.940086" lon="6.932649">
        <ele>54.568980</ele>
        <time>2026-08-28T12:42:22.826Z</time>
      </trkpt>
      <trkpt lat="50.940113" lon="6.932545">
        <ele>54.560184</ele>
        <time>2026-08-28T12:42:25.207Z</time>
      </trkpt>
      <trkpt lat="50.939484" lon="6.932538">
        <ele>54.482127</ele>
        <time>2026-08-28T12:42:41.990Z</time>
      </trkpt>
      <trkpt lat="50.939161" lon="6.932535">
        <ele>54.442044</ele>
        <time>2026-08-28T12:42:51.145Z</time>
      </trkpt>
      <trkpt lat="50.938805" lon="6.932525">
        <ele>54.368971</ele>
        <time>2026-08-28T12:43:01.114Z</time>
      </trkpt>
      <trkpt lat="50.938195" lon="6.932525">
        <ele>54.190168</ele>
        <time>2026-08-28T12:43:17.435Z</time>
      </trkpt>
      <trkpt lat="50.937545" lon="6.932525">
        <ele>53.999640</ele>
        <time>2026-08-28T12:43:34.070Z</time>
      </trkpt>
      <trkpt lat="50.937519" lon="6.932525">
        <ele>53.992019</ele>
        <time>2026-08-28T12:43:34.746Z</time>
      </trkpt>
      <trkpt lat="50.936987" lon="6.932508">
        <ele>53.651443</ele>
        <time>2026-08-28T12:43:47.118Z</time>
      </trkpt>
      <trkpt lat="50.936641" lon="6.932500">
        <ele>53.214464</ele>
        <time>2026-08-28T12:43:54.768Z</time>
      </trkpt>
      <trkpt lat="50.936576" lon="6.932499">
        <ele>53.132377</ele>
        <time>2026-08-28T12:43:56.252Z</time>
      </trkpt>
      <trkpt lat="50.936577" lon="6.932373">
        <ele>53.032099</ele>
        <time>2026-08-28T12:43:57.954Z</time>
      </trkpt>
      <trkpt lat="50.936580" lon="6.931886">
        <ele>52.644526</ele>
        <time>2026-08-28T12:44:04.707Z</time>
      </trkpt>
      <trkpt lat="50.936582" lon="6.931547">
        <ele>52.374739</ele>
        <time>2026-08-28T12:44:09.468Z</time>
      </trkpt>
      <trkpt lat="50.936583" lon="6.931293">
        <ele>52.172602</ele>
        <time>2026-08-28T12:44:13.021Z</time>
      </trkpt>
      <trkpt lat="50.936589" lon="6.931021">
        <ele>51.956013</ele>
        <time>2026-08-28T12:44:16.845Z</time>
      </trkpt>
      <trkpt lat="50.936602" lon="6.930645">
        <ele>51.656342</ele>
        <time>2026-08-28T12:44:22.114Z</time>
      </trkpt>
      <trkpt lat="50.936627" lon="6.930212">
        <ele>51.402296</ele>
        <time>2026-08-28T12:44:28.316Z</time>
      </trkpt>
      <trkpt lat="50.936691" lon="6.929160">
        <ele>50.810620</ele>
        <time>2026-08-28T12:44:44.172Z</time>
      </trkpt>
      <trkpt lat="50.936723" lon="6.926454">
        <ele>49.539813</ele>
        <time>2026-08-28T12:45:24.580Z</time>
      </trkpt>
      <trkpt lat="50.936811" lon="6.926288">
        <ele>49.459178</ele>
        <time>2026-08-28T12:45:28.792Z</time>
      </trkpt>
      <trkpt lat="50.936818" lon="6.925917">
        <ele>49.321210</ele>
        <time>2026-08-28T12:45:36.007Z</time>
      </trkpt>
      <trkpt lat="50.936874" lon="6.925789">
        <ele>49.263288</ele>
        <time>2026-08-28T12:45:39.083Z</time>
      </trkpt>
      <trkpt lat="50.936823" lon="6.925665">
        <ele>49.208247</ele>
        <time>2026-08-28T12:45:42.093Z</time>
      </trkpt>
      <trkpt lat="50.936820" lon="6.924951">
        <ele>48.991439</ele>
        <time>2026-08-28T12:45:57.852Z</time>
      </trkpt>
      <trkpt lat="50.936821" lon="6.924895">
        <ele>49.024228</ele>
        <time>2026-08-28T12:45:59.126Z</time>
      </trkpt>
      <trkpt lat="50.936824" lon="6.924795">
        <ele>49.082823</ele>
        <time>2026-08-28T12:46:01.475Z</time>
      </trkpt>
      <trkpt lat="50.936827" lon="6.924721">
        <ele>49.126224</ele>
        <time>2026-08-28T12:46:03.191Z</time>
      </trkpt>
      <trkpt lat="50.936829" lon="6.924634">
        <ele>49.177178</ele>
        <time>2026-08-28T12:46:04.825Z</time>
      </trkpt>
      <trkpt lat="50.936831" lon="6.924553">
        <ele>49.224622</ele>
        <time>2026-08-28T12:46:06.809Z</time>
      </trkpt>
      <trkpt lat="50.936832" lon="6.924464">
        <ele>49.276721</ele>
        <time>2026-08-28T12:46:08.966Z</time>
      </trkpt>
      <trkpt lat="50.936763" lon="6.924466">
        <ele>49.340816</ele>
        <time>2026-08-28T12:46:11.073Z</time>
      </trkpt>
      <trkpt lat="50.936561" lon="6.924471">
        <ele>49.528450</ele>
        <time>2026-08-28T12:46:17.480Z</time>
      </trkpt>
      <trkpt lat="50.936484" lon="6.924474">
        <ele>49.599986</ele>
        <time>2026-08-28T12:46:19.878Z</time>
      </trkpt>
      <trkpt lat="50.936365" lon="6.924471">
        <ele>49.710523</ele>
        <time>2026-08-28T12:46:23.673Z</time>
      </trkpt>
      <trkpt lat="50.936321" lon="6.924453">
        <ele>49.752725</ele>
        <time>2026-08-28T12:46:25.090Z</time>
      </trkpt>
      <trkpt lat="50.936259" lon="6.924430">
        <ele>49.811861</ele>
        <time>2026-08-28T12:46:27.215Z</time>
      </trkpt>
      <trkpt lat="50.936005" lon="6.924324">
        <ele>50.055789</ele>
        <time>2026-08-28T12:46:35.660Z</time>
      </trkpt>
      <trkpt lat="50.935529" lon="6.924240">
        <ele>50.500607</ele>
        <time>2026-08-28T12:46:51.845Z</time>
      </trkpt>
      <trkpt lat="50.935448" lon="6.924240">
        <ele>50.575837</ele>
        <time>2026-08-28T12:46:54.559Z</time>
      </trkpt>
      <trkpt lat="50.935056" lon="6.924241">
        <ele>51.045276</ele>
        <time>2026-08-28T12:47:07.209Z</time>
      </trkpt>
      <trkpt lat="50.934650" lon="6.924289">
        <ele>51.552884</ele>
        <time>2026-08-28T12:47:20.221Z</time>
      </trkpt>
      <trkpt lat="50.934135" lon="6.924493">
        <ele>52.214696</ele>
        <time>2026-08-28T12:47:37.773Z</time>
      </trkpt>
      <trkpt lat="50.934045" lon="6.924481">
        <ele>52.327304</ele>
        <time>2026-08-28T12:47:40.767Z</time>
      </trkpt>
      <trkpt lat="50.933630" lon="6.924467">
        <ele>52.844847</ele>
        <time>2026-08-28T12:47:57.920Z</time>
      </trkpt>
      <trkpt lat="50.933621" lon="6.924536">
        <ele>52.880508</ele>
        <time>2026-08-28T12:47:59.339Z</time>
      </trkpt>
      <trkpt lat="50.933616" lon="6.924600">
        <ele>52.891893</ele>
        <time>2026-08-28T12:48:00.645Z</time>
      </trkpt>
      <trkpt lat="50.933509" lon="6.924630">
        <ele>52.922329</ele>
        <time>2026-08-28T12:48:04.253Z</time>
      </trkpt>
      <trkpt lat="50.933406" lon="6.924660">
        <ele>52.951663</ele>
        <time>2026-08-28T12:48:07.692Z</time>
      </trkpt>
      <trkpt lat="50.933419" lon="6.924734">
        <ele>52.965225</ele>
        <time>2026-08-28T12:48:09.251Z</time>
      </trkpt>
      <trkpt lat="50.932844" lon="6.925106">
        <ele>53.139166</ele>
        <time>2026-08-28T12:48:29.890Z</time>
      </trkpt>
      <trkpt lat="50.931827" lon="6.925798">
        <ele>53.079167</ele>
        <time>2026-08-28T12:48:57.738Z</time>
      </trkpt>
      <trkpt lat="50.931467" lon="6.926015">
        <ele>52.620999</ele>
        <time>2026-08-28T12:49:06.786Z</time>
      </trkpt>
      <trkpt lat="50.931405" lon="6.926052">
        <ele>52.542191</ele>
        <time>2026-08-28T12:49:08.372Z</time>
      </trkpt>
      <trkpt lat="50.931336" lon="6.926105">
        <ele>52.450986</ele>
        <time>2026-08-28T12:49:10.153Z</time>
      </trkpt>
      <trkpt lat="50.931067" lon="6.926307">
        <ele>52.096915</ele>
        <time>2026-08-28T12:49:17.061Z</time>
      </trkpt>
      <trkpt lat="50.930968" lon="6.926376">
        <ele>51.968270</ele>
        <time>2026-08-28T12:49:19.554Z</time>
      </trkpt>
      <trkpt lat="50.930839" lon="6.926461">
        <ele>51.802086</ele>
        <time>2026-08-28T12:49:22.743Z</time>
      </trkpt>
      <trkpt lat="50.930107" lon="6.926913">
        <ele>51.097307</ele>
        <time>2026-08-28T12:49:41.260Z</time>
      </trkpt>
      <trkpt lat="50.929943" lon="6.926942">
        <ele>51.022501</ele>
        <time>2026-08-28T12:49:45.228Z</time>
      </trkpt>
      <trkpt lat="50.929571" lon="6.927160">
        <ele>50.842728</ele>
        <time>2026-08-28T12:49:55.134Z</time>
      </trkpt>
      <trkpt lat="50.929107" lon="6.927447">
        <ele>50.616965</ele>
        <time>2026-08-28T12:50:08.132Z</time>
      </trkpt>
      <trkpt lat="50.928972" lon="6.927493">
        <ele>50.554371</ele>
        <time>2026-08-28T12:50:11.927Z</time>
      </trkpt>
      <trkpt lat="50.928623" lon="6.926104">
        <ele>50.901955</ele>
        <time>2026-08-28T12:50:40.462Z</time>
      </trkpt>
      <trkpt lat="50.928585" lon="6.925990">
        <ele>50.961488</ele>
        <time>2026-08-28T12:50:43.108Z</time>
      </trkpt>
      <trkpt lat="50.928575" lon="6.925959">
        <ele>50.977564</ele>
        <time>2026-08-28T12:50:43.798Z</time>
      </trkpt>
      <trkpt lat="50.928536" lon="6.925877">
        <ele>51.024986</ele>
        <time>2026-08-28T12:50:45.879Z</time>
      </trkpt>
      <trkpt lat="50.928266" lon="6.924952">
        <ele>51.495565</ele>
        <time>2026-08-28T12:51:06.157Z</time>
      </trkpt>
      <trkpt lat="50.928103" lon="6.924397">
        <ele>51.757309</ele>
        <time>2026-08-28T12:51:17.734Z</time>
      </trkpt>
      <trkpt lat="50.927608" lon="6.924668">
        <ele>51.927037</ele>
        <time>2026-08-28T12:51:31.996Z</time>
      </trkpt>
      <trkpt lat="50.927526" lon="6.924718">
        <ele>51.955511</ele>
        <time>2026-08-28T12:51:34.207Z</time>
      </trkpt>
      <trkpt lat="50.927456" lon="6.924756">
        <ele>51.979491</ele>
        <time>2026-08-28T12:51:36.113Z</time>
      </trkpt>
      <trkpt lat="50.926955" lon="6.925047">
        <ele>52.152421</ele>
        <time>2026-08-28T12:51:50.180Z</time>
      </trkpt>
      <trkpt lat="50.926824" lon="6.925128">
        <ele>52.197993</ele>
        <time>2026-08-28T12:51:54.202Z</time>
      </trkpt>
      <trkpt lat="50.926723" lon="6.925188">
        <ele>52.232949</ele>
        <time>2026-08-28T12:51:57.404Z</time>
      </trkpt>
      <trkpt lat="50.926634" lon="6.925244">
        <ele>52.263983</ele>
        <time>2026-08-28T12:52:00.351Z</time>
      </trkpt>
      <trkpt lat="50.926509" lon="6.925324">
        <ele>52.307671</ele>
        <time>2026-08-28T12:52:04.616Z</time>
      </trkpt>
      <trkpt lat="50.926467" lon="6.925346">
        <ele>52.322008</ele>
        <time>2026-08-28T12:52:06.032Z</time>
      </trkpt>
      <trkpt lat="50.925865" lon="6.925727">
        <ele>52.744607</ele>
        <time>2026-08-28T12:52:25.761Z</time>
      </trkpt>
      <trkpt lat="50.925439" lon="6.925996">
        <ele>53.044783</ele>
        <time>2026-08-28T12:52:39.728Z</time>
      </trkpt>
      <trkpt lat="50.925361" lon="6.926046">
        <ele>53.099860</ele>
        <time>2026-08-28T12:52:42.316Z</time>
      </trkpt>
      <trkpt lat="50.925153" lon="6.926181">
        <ele>53.246990</ele>
        <time>2026-08-28T12:52:49.295Z</time>
      </trkpt>
      <trkpt lat="50.924931" lon="6.926324">
        <ele>53.403854</ele>
        <time>2026-08-28T12:52:56.592Z</time>
      </trkpt>
      <trkpt lat="50.924519" lon="6.926637">
        <ele>53.520525</ele>
        <time>2026-08-28T12:53:09.101Z</time>
      </trkpt>
      <trkpt lat="50.924109" lon="6.926949">
        <ele>53.548982</ele>
        <time>2026-08-28T12:53:20.628Z</time>
      </trkpt>
      <trkpt lat="50.924053" lon="6.926993">
        <ele>53.552893</ele>
        <time>2026-08-28T12:53:22.356Z</time>
      </trkpt>
      <trkpt lat="50.923809" lon="6.926192">
        <ele>53.587987</ele>
        <time>2026-08-28T12:53:37.787Z</time>
      </trkpt>
      <trkpt lat="50.923439" lon="6.925059">
        <ele>53.672075</ele>
        <time>2026-08-28T12:53:58.675Z</time>
      </trkpt>
      <trkpt lat="50.923809" lon="6.926192">
        <ele>53.791710</ele>
        <time>2026-08-28T12:54:21.325Z</time>
      </trkpt>
      <trkpt lat="50.924053" lon="6.926993">
        <ele>53.875118</ele>
        <time>2026-08-28T12:54:36.615Z</time>
      </trkpt>
      <trkpt lat="50.924164" lon="6.927407">
        <ele>53.932455</ele>
        <time>2026-08-28T12:54:44.504Z</time>
      </trkpt>
      <trkpt lat="50.924520" lon="6.928514">
        <ele>54.098072</ele>
        <time>2026-08-28T12:55:06.907Z</time>
      </trkpt>
      <trkpt lat="50.924738" lon="6.929093">
        <ele>54.187949</ele>
        <time>2026-08-28T12:55:18.460Z</time>
      </trkpt>
      <trkpt lat="50.925088" lon="6.929823">
        <ele>54.174125</ele>
        <time>2026-08-28T12:55:33.996Z</time>
      </trkpt>
      <trkpt lat="50.925152" lon="6.929961">
        <ele>54.133013</ele>
        <time>2026-08-28T12:55:36.997Z</time>
      </trkpt>
      <trkpt lat="50.925262" lon="6.930166">
        <ele>54.068411</ele>
        <time>2026-08-28T12:55:41.490Z</time>
      </trkpt>
      <trkpt lat="50.925313" lon="6.930270">
        <ele>54.036792</ele>
        <time>2026-08-28T12:55:43.670Z</time>
      </trkpt>
      <trkpt lat="50.926049" lon="6.931428">
        <ele>53.642183</ele>
        <time>2026-08-28T12:56:08.736Z</time>
      </trkpt>
      <trkpt lat="50.926133" lon="6.931553">
        <ele>53.598339</ele>
        <time>2026-08-28T12:56:11.581Z</time>
      </trkpt>
      <trkpt lat="50.926656" lon="6.932339">
        <ele>53.753008</ele>
        <time>2026-08-28T12:56:30.631Z</time>
      </trkpt>
      <trkpt lat="50.926687" lon="6.932390">
        <ele>53.764854</ele>
        <time>2026-08-28T12:56:31.835Z</time>
      </trkpt>
      <trkpt lat="50.926868" lon="6.932685">
        <ele>53.833684</ele>
        <time>2026-08-28T12:56:39.011Z</time>
      </trkpt>
      <trkpt lat="50.927020" lon="6.932849">
        <ele>53.882442</ele>
        <time>2026-08-28T12:56:44.271Z</time>
      </trkpt>
      <trkpt lat="50.927067" lon="6.932958">
        <ele>53.904521</ele>
        <time>2026-08-28T12:56:46.743Z</time>
      </trkpt>
      <trkpt lat="50.927255" lon="6.933458">
        <ele>54.001859</ele>
        <time>2026-08-28T12:56:58.381Z</time>
      </trkpt>
      <trkpt lat="50.927317" lon="6.933634">
        <ele>54.035568</ele>
        <time>2026-08-28T12:57:02.527Z</time>
      </trkpt>
      <trkpt lat="50.927469" lon="6.934103">
        <ele>54.187200</ele>
        <time>2026-08-28T12:57:13.586Z</time>
      </trkpt>
      <trkpt lat="50.927652" lon="6.934662">
        <ele>54.388298</ele>
        <time>2026-08-28T12:57:25.826Z</time>
      </trkpt>
      <trkpt lat="50.927714" lon="6.934806">
        <ele>54.443972</ele>
        <time>2026-08-28T12:57:28.918Z</time>
      </trkpt>
      <trkpt lat="50.927801" lon="6.934964">
        <ele>54.510952</ele>
        <time>2026-08-28T12:57:32.600Z</time>
      </trkpt>
      <trkpt lat="50.928075" lon="6.935435">
        <ele>54.715576</ele>
        <time>2026-08-28T12:57:43.801Z</time>
      </trkpt>
      <trkpt lat="50.928232" lon="6.935709">
        <ele>54.833794</ele>
        <time>2026-08-28T12:57:50.482Z</time>
      </trkpt>
      <trkpt lat="50.928365" lon="6.935937">
        <ele>54.932972</ele>
        <time>2026-08-28T12:57:56.015Z</time>
      </trkpt>
      <trkpt lat="50.928419" lon="6.936030">
        <ele>54.970249</ele>
        <time>2026-08-28T12:57:58.268Z</time>
      </trkpt>
      <trkpt lat="50.928501" lon="6.936172">
        <ele>55.008968</ele>
        <time>2026-08-28T12:58:01.631Z</time>
      </trkpt>
      <trkpt lat="50.928584" lon="6.936314">
        <ele>55.047903</ele>
        <time>2026-08-28T12:58:05.020Z</time>
      </trkpt>
      <trkpt lat="50.928731" lon="6.936555">
        <ele>55.115328</ele>
        <time>2026-08-28T12:58:11.114Z</time>
      </trkpt>
      <trkpt lat="50.929751" lon="6.938321">
        <ele>55.530599</ele>
        <time>2026-08-28T12:58:53.450Z</time>
      </trkpt>
      <trkpt lat="50.930152" lon="6.939026">
        <ele>55.503989</ele>
        <time>2026-08-28T12:59:10.584Z</time>
      </trkpt>
      <trkpt lat="50.930258" lon="6.939201">
        <ele>55.497188</ele>
        <time>2026-08-28T12:59:14.615Z</time>
      </trkpt>
      <trkpt lat="50.930027" lon="6.939552">
        <ele>55.482967</ele>
        <time>2026-08-28T12:59:22.321Z</time>
      </trkpt>
      <trkpt lat="50.929964" lon="6.939692">
        <ele>55.478147</ele>
        <time>2026-08-28T12:59:24.693Z</time>
      </trkpt>
      <trkpt lat="50.929950" lon="6.939844">
        <ele>55.473842</ele>
        <time>2026-08-28T12:59:26.904Z</time>
      </trkpt>
      <trkpt lat="50.929858" lon="6.940013">
        <ele>55.467585</ele>
        <time>2026-08-28T12:59:30.248Z</time>
      </trkpt>
      <trkpt lat="50.929438" lon="6.940767">
        <ele>55.487508</ele>
        <time>2026-08-28T12:59:48.383Z</time>
      </trkpt>
      <trkpt lat="50.929320" lon="6.940991">
        <ele>55.499666</ele>
        <time>2026-08-28T12:59:53.965Z</time>
      </trkpt>
      <trkpt lat="50.929211" lon="6.941101">
        <ele>55.508202</ele>
        <time>2026-08-28T12:59:57.617Z</time>
      </trkpt>
      <trkpt lat="50.929148" lon="6.941414">
        <ele>55.521886</ele>
        <time>2026-08-28T13:00:03.174Z</time>
      </trkpt>
      <trkpt lat="50.929100" lon="6.941166">
        <ele>55.532690</ele>
        <time>2026-08-28T13:00:07.535Z</time>
      </trkpt>
      <trkpt lat="50.929033" lon="6.940690">
        <ele>55.553003</ele>
        <time>2026-08-28T13:00:15.586Z</time>
      </trkpt>
      <trkpt lat="50.928891" lon="6.939679">
        <ele>55.433829</ele>
        <time>2026-08-28T13:00:33.335Z</time>
      </trkpt>
      <trkpt lat="50.928810" lon="6.939583">
        <ele>55.382053</ele>
        <time>2026-08-28T13:00:35.804Z</time>
      </trkpt>
      <trkpt lat="50.928125" lon="6.939658">
        <ele>55.030430</ele>
        <time>2026-08-28T13:00:52.585Z</time>
      </trkpt>
      <trkpt lat="50.927774" lon="6.939697">
        <ele>54.850242</ele>
        <time>2026-08-28T13:01:00.749Z</time>
      </trkpt>
      <trkpt lat="50.927526" lon="6.939754">
        <ele>54.721915</ele>
        <time>2026-08-28T13:01:06.504Z</time>
      </trkpt>
      <trkpt lat="50.927179" lon="6.939407">
        <ele>54.523745</ele>
        <time>2026-08-28T13:01:16.516Z</time>
      </trkpt>
      <trkpt lat="50.927032" lon="6.939360">
        <ele>54.453262</ele>
        <time>2026-08-28T13:01:20.356Z</time>
      </trkpt>
      <trkpt lat="50.926946" lon="6.939271">
        <ele>54.404999</ele>
        <time>2026-08-28T13:01:23.045Z</time>
      </trkpt>
      <trkpt lat="50.926564" lon="6.938869">
        <ele>54.189538</ele>
        <time>2026-08-28T13:01:35.644Z</time>
      </trkpt>
      <trkpt lat="50.926465" lon="6.938759">
        <ele>54.132727</ele>
        <time>2026-08-28T13:01:38.859Z</time>
      </trkpt>
      <trkpt lat="50.925944" lon="6.938220">
        <ele>53.840374</ele>
        <time>2026-08-28T13:01:53.660Z</time>
      </trkpt>
      <trkpt lat="50.925121" lon="6.937358">
        <ele>53.039179</ele>
        <time>2026-08-28T13:02:16.705Z</time>
      </trkpt>
      <trkpt lat="50.924777" lon="6.937849">
        <ele>52.652556</ele>
        <time>2026-08-28T13:02:27.423Z</time>
      </trkpt>
      <trkpt lat="50.923995" lon="6.939024">
        <ele>51.962938</ele>
        <time>2026-08-28T13:02:53.777Z</time>
      </trkpt>
      <trkpt lat="50.923782" lon="6.939344">
        <ele>51.810600</ele>
        <time>2026-08-28T13:03:00.905Z</time>
      </trkpt>
      <trkpt lat="50.923553" lon="6.939688">
        <ele>51.646827</ele>
        <time>2026-08-28T13:03:08.574Z</time>
      </trkpt>
      <trkpt lat="50.923080" lon="6.940399">
        <ele>51.352848</ele>
        <time>2026-08-28T13:03:24.710Z</time>
      </trkpt>
      <trkpt lat="50.923049" lon="6.940376">
        <ele>51.347066</ele>
        <time>2026-08-28T13:03:25.562Z</time>
      </trkpt>
      <trkpt lat="50.923080" lon="6.940399">
        <ele>51.341284</ele>
        <time>2026-08-28T13:03:26.414Z</time>
      </trkpt>
      <trkpt lat="50.922852" lon="6.940741">
        <ele>51.288271</ele>
        <time>2026-08-28T13:03:34.312Z</time>
      </trkpt>
      <trkpt lat="50.921992" lon="6.942048">
        <ele>51.087059</ele>
        <time>2026-08-28T13:04:06.253Z</time>
      </trkpt>
      <trkpt lat="50.921459" lon="6.942857">
        <ele>50.574868</ele>
        <time>2026-08-28T13:04:24.889Z</time>
      </trkpt>
      <trkpt lat="50.921320" lon="6.943061">
        <ele>50.428018</ele>
        <time>2026-08-28T13:04:29.617Z</time>
      </trkpt>
      <trkpt lat="50.921118" lon="6.943369">
        <ele>50.210739</ele>
        <time>2026-08-28T13:04:36.457Z</time>
      </trkpt>
      <trkpt lat="50.921069" lon="6.943473">
        <ele>50.147266</ele>
        <time>2026-08-28T13:04:38.392Z</time>
      </trkpt>
      <trkpt lat="50.920675" lon="6.944504">
        <ele>49.536475</ele>
        <time>2026-08-28T13:05:01.374Z</time>
      </trkpt>
      <trkpt lat="50.920649" lon="6.944570">
        <ele>49.491513</ele>
        <time>2026-08-28T13:05:02.799Z</time>
      </trkpt>
      <trkpt lat="50.920567" lon="6.944692">
        <ele>49.388483</ele>
        <time>2026-08-28T13:05:06.090Z</time>
      </trkpt>
      <trkpt lat="50.920145" lon="6.945742">
        <ele>48.669074</ele>
        <time>2026-08-28T13:05:29.581Z</time>
      </trkpt>
      <trkpt lat="50.919800" lon="6.946607">
        <ele>48.077715</ele>
        <time>2026-08-28T13:05:50.804Z</time>
      </trkpt>
      <trkpt lat="50.919728" lon="6.946807">
        <ele>48.094334</ele>
        <time>2026-08-28T13:05:56.158Z</time>
      </trkpt>
      <trkpt lat="50.918985" lon="6.948662">
        <ele>49.127354</ele>
        <time>2026-08-28T13:06:52.833Z</time>
      </trkpt>
      <trkpt lat="50.918946" lon="6.948902">
        <ele>49.243851</ele>
        <time>2026-08-28T13:06:58.836Z</time>
      </trkpt>
      <trkpt lat="50.918944" lon="6.949144">
        <ele>49.357611</ele>
        <time>2026-08-28T13:07:04.538Z</time>
      </trkpt>
      <trkpt lat="50.918980" lon="6.949384">
        <ele>49.318275</ele>
        <time>2026-08-28T13:07:10.181Z</time>
      </trkpt>
      <trkpt lat="50.919106" lon="6.949698">
        <ele>49.235247</ele>
        <time>2026-08-28T13:07:18.440Z</time>
      </trkpt>
      <trkpt lat="50.919075" lon="6.949827">
        <ele>49.204453</ele>
        <time>2026-08-28T13:07:20.718Z</time>
      </trkpt>
      <trkpt lat="50.919052" lon="6.949942">
        <ele>49.177540</ele>
        <time>2026-08-28T13:07:22.547Z</time>
      </trkpt>
      <trkpt lat="50.918922" lon="6.949916">
        <ele>49.131178</ele>
        <time>2026-08-28T13:07:26.735Z</time>
      </trkpt>
      <trkpt lat="50.918695" lon="6.950343">
        <ele>49.006584</ele>
        <time>2026-08-28T13:07:34.688Z</time>
      </trkpt>
      <trkpt lat="50.918627" lon="6.950475">
        <ele>48.968559</ele>
        <time>2026-08-28T13:07:37.209Z</time>
      </trkpt>
      <trkpt lat="50.918498" lon="6.950716">
        <ele>48.898036</ele>
        <time>2026-08-28T13:07:41.943Z</time>
      </trkpt>
      <trkpt lat="50.918383" lon="6.950943">
        <ele>48.833077</ele>
        <time>2026-08-28T13:07:46.449Z</time>
      </trkpt>
      <trkpt lat="50.918374" lon="6.950961">
        <ele>48.827952</ele>
        <time>2026-08-28T13:07:46.835Z</time>
      </trkpt>
      <trkpt lat="50.918121" lon="6.951459">
        <ele>48.754885</ele>
        <time>2026-08-28T13:07:57.022Z</time>
      </trkpt>
      <trkpt lat="50.917985" lon="6.951728">
        <ele>48.792977</ele>
        <time>2026-08-28T13:08:03.008Z</time>
      </trkpt>
      <trkpt lat="50.917750" lon="6.952180">
        <ele>48.857700</ele>
        <time>2026-08-28T13:08:13.236Z</time>
      </trkpt>
      <trkpt lat="50.917491" lon="6.952658">
        <ele>48.927329</ele>
        <time>2026-08-28T13:08:24.667Z</time>
      </trkpt>
      <trkpt lat="50.917338" lon="6.952945">
        <ele>48.968850</ele>
        <time>2026-08-28T13:08:32.021Z</time>
      </trkpt>
      <trkpt lat="50.917287" lon="6.953052">
        <ele>48.983669</ele>
        <time>2026-08-28T13:08:34.552Z</time>
      </trkpt>
      <trkpt lat="50.917224" lon="6.953363">
        <ele>49.019756</ele>
        <time>2026-08-28T13:08:40.404Z</time>
      </trkpt>
      <trkpt lat="50.917190" lon="6.953706">
        <ele>49.057515</ele>
        <time>2026-08-28T13:08:46.251Z</time>
      </trkpt>
      <trkpt lat="50.917175" lon="6.953839">
        <ele>49.071636</ele>
        <time>2026-08-28T13:08:48.480Z</time>
      </trkpt>
      <trkpt lat="50.917122" lon="6.954307">
        <ele>49.121332</ele>
        <time>2026-08-28T13:08:55.969Z</time>
      </trkpt>
      <trkpt lat="50.917042" lon="6.955018">
        <ele>49.196816</ele>
        <time>2026-08-28T13:09:07.460Z</time>
      </trkpt>
      <trkpt lat="50.917032" lon="6.955103">
        <ele>49.205853</ele>
        <time>2026-08-28T13:09:08.938Z</time>
      </trkpt>
      <trkpt lat="50.916959" lon="6.955750">
        <ele>49.274549</ele>
        <time>2026-08-28T13:09:20.406Z</time>
      </trkpt>
      <trkpt lat="50.917100" lon="6.955787">
        <ele>49.298242</ele>
        <time>2026-08-28T13:09:24.473Z</time>
      </trkpt>
      <trkpt lat="50.917081" lon="6.955962">
        <ele>49.316801</ele>
        <time>2026-08-28T13:09:27.641Z</time>
      </trkpt>
      <trkpt lat="50.917113" lon="6.956135">
        <ele>49.335644</ele>
        <time>2026-08-28T13:09:30.985Z</time>
      </trkpt>
      <trkpt lat="50.917338" lon="6.956423">
        <ele>49.691946</ele>
        <time>2026-08-28T13:09:39.744Z</time>
      </trkpt>
      <trkpt lat="50.917762" lon="6.956941">
        <ele>50.493406</ele>
        <time>2026-08-28T13:09:57.359Z</time>
      </trkpt>
      <trkpt lat="50.917833" lon="6.957024">
        <ele>50.625487</ele>
        <time>2026-08-28T13:10:00.579Z</time>
      </trkpt>
      <trkpt lat="50.918092" lon="6.957326">
        <ele>51.106870</ele>
        <time>2026-08-28T13:10:12.392Z</time>
      </trkpt>
      <trkpt lat="50.918222" lon="6.957488">
        <ele>51.354443</ele>
        <time>2026-08-28T13:10:18.265Z</time>
      </trkpt>
      <trkpt lat="50.918584" lon="6.957931">
        <ele>52.039043</ele>
        <time>2026-08-28T13:10:34.473Z</time>
      </trkpt>
      <trkpt lat="50.918644" lon="6.957998">
        <ele>52.124657</ele>
        <time>2026-08-28T13:10:37.116Z</time>
      </trkpt>
      <trkpt lat="50.918700" lon="6.958070">
        <ele>52.208764</ele>
        <time>2026-08-28T13:10:39.727Z</time>
      </trkpt>
      <trkpt lat="50.918862" lon="6.958404">
        <ele>52.518738</ele>
        <time>2026-08-28T13:10:49.442Z</time>
      </trkpt>
      <trkpt lat="50.919169" lon="6.959156">
        <ele>53.177726</ele>
        <time>2026-08-28T13:11:07.734Z</time>
      </trkpt>
      <trkpt lat="50.919441" lon="6.959755">
        <ele>53.720718</ele>
        <time>2026-08-28T13:11:21.839Z</time>
      </trkpt>
      <trkpt lat="50.919489" lon="6.959862">
        <ele>53.817314</ele>
        <time>2026-08-28T13:11:24.522Z</time>
      </trkpt>
      <trkpt lat="50.919429" lon="6.960096">
        <ele>54.003124</ele>
        <time>2026-08-28T13:11:29.669Z</time>
      </trkpt>
      <trkpt lat="50.919359" lon="6.960116">
        <ele>54.086112</ele>
        <time>2026-08-28T13:11:31.895Z</time>
      </trkpt>
      <trkpt lat="50.919130" lon="6.960179">
        <ele>54.080031</ele>
        <time>2026-08-28T13:11:38.656Z</time>
      </trkpt>
      <trkpt lat="50.919007" lon="6.960218">
        <ele>54.041906</ele>
        <time>2026-08-28T13:11:42.286Z</time>
      </trkpt>
      <trkpt lat="50.919130" lon="6.960179">
        <ele>54.003780</ele>
        <time>2026-08-28T13:11:45.734Z</time>
      </trkpt>
      <trkpt lat="50.919359" lon="6.960116">
        <ele>53.933137</ele>
        <time>2026-08-28T13:11:51.760Z</time>
      </trkpt>
      <trkpt lat="50.919429" lon="6.960096">
        <ele>53.911518</ele>
        <time>2026-08-28T13:11:53.502Z</time>
      </trkpt>
      <trkpt lat="50.919489" lon="6.959862">
        <ele>53.863114</ele>
        <time>2026-08-28T13:11:57.161Z</time>
      </trkpt>
      <trkpt lat="50.919609" lon="6.959821">
        <ele>53.825803</ele>
        <time>2026-08-28T13:11:59.946Z</time>
      </trkpt>
      <trkpt lat="50.919683" lon="6.959796">
        <ele>53.802806</ele>
        <time>2026-08-28T13:12:01.708Z</time>
      </trkpt>
      <trkpt lat="50.919722" lon="6.959694">
        <ele>53.779948</ele>
        <time>2026-08-28T13:12:03.508Z</time>
      </trkpt>
      <trkpt lat="50.919835" lon="6.959408">
        <ele>53.715273</ele>
        <time>2026-08-28T13:12:08.746Z</time>
      </trkpt>
      <trkpt lat="50.919912" lon="6.959212">
        <ele>53.671022</ele>
        <time>2026-08-28T13:12:12.466Z</time>
      </trkpt>
      <trkpt lat="50.919979" lon="6.959041">
        <ele>53.632444</ele>
        <time>2026-08-28T13:12:15.679Z</time>
      </trkpt>
      <trkpt lat="50.920019" lon="6.958938">
        <ele>53.609263</ele>
        <time>2026-08-28T13:12:17.563Z</time>
      </trkpt>
      <trkpt lat="50.920086" lon="6.958769">
        <ele>53.610872</ele>
        <time>2026-08-28T13:12:20.518Z</time>
      </trkpt>
      <trkpt lat="50.920177" lon="6.958542">
        <ele>53.664023</ele>
        <time>2026-08-28T13:12:24.297Z</time>
      </trkpt>
      <trkpt lat="50.920234" lon="6.958390">
        <ele>53.698968</ele>
        <time>2026-08-28T13:12:26.847Z</time>
      </trkpt>
      <trkpt lat="50.920350" lon="6.958103">
        <ele>53.766327</ele>
        <time>2026-08-28T13:12:32.232Z</time>
      </trkpt>
      <trkpt lat="50.920386" lon="6.958013">
        <ele>53.787387</ele>
        <time>2026-08-28T13:12:34.119Z</time>
      </trkpt>
      <trkpt lat="50.920462" lon="6.957824">
        <ele>53.831680</ele>
        <time>2026-08-28T13:12:37.980Z</time>
      </trkpt>
      <trkpt lat="50.920548" lon="6.957613">
        <ele>53.881324</ele>
        <time>2026-08-28T13:12:42.327Z</time>
      </trkpt>
      <trkpt lat="50.920640" lon="6.957497">
        <ele>53.918157</ele>
        <time>2026-08-28T13:12:45.594Z</time>
      </trkpt>
      <trkpt lat="50.920600" lon="6.957287">
        <ele>53.961501</ele>
        <time>2026-08-28T13:12:49.471Z</time>
      </trkpt>
      <trkpt lat="50.920747" lon="6.957141">
        <ele>54.015860</ele>
        <time>2026-08-28T13:12:54.767Z</time>
      </trkpt>
      <trkpt lat="50.920868" lon="6.956846">
        <ele>54.085397</ele>
        <time>2026-08-28T13:13:02.068Z</time>
      </trkpt>
      <trkpt lat="50.920933" lon="6.956691">
        <ele>54.122178</ele>
        <time>2026-08-28T13:13:06.082Z</time>
      </trkpt>
      <trkpt lat="50.920980" lon="6.956576">
        <ele>54.149257</ele>
        <time>2026-08-28T13:13:09.102Z</time>
      </trkpt>
      <trkpt lat="50.921363" lon="6.955619">
        <ele>54.532072</ele>
        <time>2026-08-28T13:13:33.538Z</time>
      </trkpt>
      <trkpt lat="50.921566" lon="6.955086">
        <ele>54.744407</ele>
        <time>2026-08-28T13:13:45.381Z</time>
      </trkpt>
      <trkpt lat="50.921583" lon="6.955000">
        <ele>54.775138</ele>
        <time>2026-08-28T13:13:46.868Z</time>
      </trkpt>
      <trkpt lat="50.922295" lon="6.953362">
        <ele>54.572528</ele>
        <time>2026-08-28T13:14:18.207Z</time>
      </trkpt>
      <trkpt lat="50.922560" lon="6.952738">
        <ele>54.136401</ele>
        <time>2026-08-28T13:14:29.378Z</time>
      </trkpt>
      <trkpt lat="50.922803" lon="6.952172">
        <ele>53.739455</ele>
        <time>2026-08-28T13:14:39.215Z</time>
      </trkpt>
      <trkpt lat="50.922849" lon="6.952065">
        <ele>53.664382</ele>
        <time>2026-08-28T13:14:41.041Z</time>
      </trkpt>
      <trkpt lat="50.922950" lon="6.952176">
        <ele>53.551399</ele>
        <time>2026-08-28T13:14:43.764Z</time>
      </trkpt>
      <trkpt lat="50.923138" lon="6.952261">
        <ele>53.260567</ele>
        <time>2026-08-28T13:14:47.992Z</time>
      </trkpt>
      <trkpt lat="50.923393" lon="6.952346">
        <ele>52.759249</ele>
        <time>2026-08-28T13:14:53.574Z</time>
      </trkpt>
      <trkpt lat="50.923627" lon="6.952400">
        <ele>52.304308</ele>
        <time>2026-08-28T13:14:58.608Z</time>
      </trkpt>
      <trkpt lat="50.923732" lon="6.952430">
        <ele>52.099044</ele>
        <time>2026-08-28T13:15:00.851Z</time>
      </trkpt>
      <trkpt lat="50.924035" lon="6.952589">
        <ele>51.485026</ele>
        <time>2026-08-28T13:15:07.448Z</time>
      </trkpt>
      <trkpt lat="50.924108" lon="6.952632">
        <ele>51.335209</ele>
        <time>2026-08-28T13:15:09.011Z</time>
      </trkpt>
      <trkpt lat="50.924173" lon="6.952495">
        <ele>51.127257</ele>
        <time>2026-08-28T13:15:11.231Z</time>
      </trkpt>
      <trkpt lat="50.924236" lon="6.952353">
        <ele>50.916667</ele>
        <time>2026-08-28T13:15:13.460Z</time>
      </trkpt>
      <trkpt lat="50.924357" lon="6.952089">
        <ele>50.520813</ele>
        <time>2026-08-28T13:15:17.644Z</time>
      </trkpt>
      <trkpt lat="50.924381" lon="6.952022">
        <ele>50.427355</ele>
        <time>2026-08-28T13:15:18.657Z</time>
      </trkpt>
      <trkpt lat="50.924878" lon="6.950925">
        <ele>49.830181</ele>
        <time>2026-08-28T13:15:37.474Z</time>
      </trkpt>
      <trkpt lat="50.925349" lon="6.949803">
        <ele>49.586175</ele>
        <time>2026-08-28T13:16:00.650Z</time>
      </trkpt>
      <trkpt lat="50.926133" lon="6.947871">
        <ele>50.668711</ele>
        <time>2026-08-28T13:16:47.545Z</time>
      </trkpt>
      <trkpt lat="50.926269" lon="6.947358">
        <ele>51.030880</ele>
        <time>2026-08-28T13:16:58.539Z</time>
      </trkpt>
      <trkpt lat="50.926300" lon="6.947221">
        <ele>51.125605</ele>
        <time>2026-08-28T13:17:01.421Z</time>
      </trkpt>
      <trkpt lat="50.926428" lon="6.946538">
        <ele>51.480649</ele>
        <time>2026-08-28T13:17:15.133Z</time>
      </trkpt>
      <trkpt lat="50.926493" lon="6.946347">
        <ele>51.556861</ele>
        <time>2026-08-28T13:17:19.488Z</time>
      </trkpt>
      <trkpt lat="50.926600" lon="6.946091">
        <ele>51.664710</ele>
        <time>2026-08-28T13:17:25.566Z</time>
      </trkpt>
      <trkpt lat="50.926760" lon="6.945754">
        <ele>51.812844</ele>
        <time>2026-08-28T13:17:33.103Z</time>
      </trkpt>
      <trkpt lat="50.926868" lon="6.945549">
        <ele>51.906651</ele>
        <time>2026-08-28T13:17:37.544Z</time>
      </trkpt>
      <trkpt lat="50.927000" lon="6.945302">
        <ele>52.020349</ele>
        <time>2026-08-28T13:17:43.157Z</time>
      </trkpt>
      <trkpt lat="50.927096" lon="6.945135">
        <ele>52.099706</ele>
        <time>2026-08-28T13:17:47.214Z</time>
      </trkpt>
      <trkpt lat="50.927190" lon="6.944932">
        <ele>52.188146</ele>
        <time>2026-08-28T13:17:52.005Z</time>
      </trkpt>
      <trkpt lat="50.927295" lon="6.944693">
        <ele>52.290431</ele>
        <time>2026-08-28T13:17:57.707Z</time>
      </trkpt>
      <trkpt lat="50.927561" lon="6.944250">
        <ele>52.453337</ele>
        <time>2026-08-28T13:18:09.482Z</time>
      </trkpt>
      <trkpt lat="50.927768" lon="6.943917">
        <ele>52.560722</ele>
        <time>2026-08-28T13:18:17.903Z</time>
      </trkpt>
      <trkpt lat="50.928059" lon="6.943500">
        <ele>52.703562</ele>
        <time>2026-08-28T13:18:26.666Z</time>
      </trkpt>
      <trkpt lat="50.928209" lon="6.943307">
        <ele>52.773912</ele>
        <time>2026-08-28T13:18:32.402Z</time>
      </trkpt>
      <trkpt lat="50.928506" lon="6.942975">
        <ele>52.906257</ele>
        <time>2026-08-28T13:18:44.376Z</time>
      </trkpt>
      <trkpt lat="50.928577" lon="6.942909">
        <ele>52.936233</ele>
        <time>2026-08-28T13:18:46.896Z</time>
      </trkpt>
      <trkpt lat="50.928768" lon="6.942685">
        <ele>53.051329</ele>
        <time>2026-08-28T13:18:54.238Z</time>
      </trkpt>
      <trkpt lat="50.928823" lon="6.942626">
        <ele>53.131600</ele>
        <time>2026-08-28T13:18:56.237Z</time>
      </trkpt>
      <trkpt lat="50.928855" lon="6.942584">
        <ele>53.181813</ele>
        <time>2026-08-28T13:18:57.496Z</time>
      </trkpt>
      <trkpt lat="50.929102" lon="6.942196">
        <ele>53.602058</ele>
        <time>2026-08-28T13:19:07.638Z</time>
      </trkpt>
      <trkpt lat="50.929294" lon="6.941892">
        <ele>53.930014</ele>
        <time>2026-08-28T13:19:16.195Z</time>
      </trkpt>
      <trkpt lat="50.929372" lon="6.941782">
        <ele>54.056189</ele>
        <time>2026-08-28T13:19:19.594Z</time>
      </trkpt>
      <trkpt lat="50.929300" lon="6.941378">
        <ele>54.376124</ele>
        <time>2026-08-28T13:19:29.801Z</time>
      </trkpt>
      <trkpt lat="50.929296" lon="6.941205">
        <ele>54.508046</ele>
        <time>2026-08-28T13:19:34.715Z</time>
      </trkpt>
      <trkpt lat="50.929320" lon="6.940991">
        <ele>54.673684</ele>
        <time>2026-08-28T13:19:39.923Z</time>
      </trkpt>
      <trkpt lat="50.929438" lon="6.940767">
        <ele>54.896151</ele>
        <time>2026-08-28T13:19:45.991Z</time>
      </trkpt>
      <trkpt lat="50.929655" lon="6.940377">
        <ele>55.231844</ele>
        <time>2026-08-28T13:19:54.280Z</time>
      </trkpt>
      <trkpt lat="50.929858" lon="6.940013">
        <ele>55.392943</ele>
        <time>2026-08-28T13:20:02.965Z</time>
      </trkpt>
      <trkpt lat="50.929950" lon="6.939844">
        <ele>55.466960</ele>
        <time>2026-08-28T13:20:07.131Z</time>
      </trkpt>
      <trkpt lat="50.930308" lon="6.939286">
        <ele>55.730876</ele>
        <time>2026-08-28T13:20:22.381Z</time>
      </trkpt>
      <trkpt lat="50.931041" lon="6.940557">
        <ele>56.323508</ele>
        <time>2026-08-28T13:20:52.621Z</time>
      </trkpt>
      <trkpt lat="50.931075" lon="6.940618">
        <ele>56.353911</ele>
        <time>2026-08-28T13:20:54.295Z</time>
      </trkpt>
      <trkpt lat="50.931201" lon="6.940836">
        <ele>56.464347</ele>
        <time>2026-08-28T13:21:00.381Z</time>
      </trkpt>
      <trkpt lat="50.931266" lon="6.940807">
        <ele>56.504346</ele>
        <time>2026-08-28T13:21:02.546Z</time>
      </trkpt>
      <trkpt lat="50.931511" lon="6.940704">
        <ele>56.654491</ele>
        <time>2026-08-28T13:21:10.389Z</time>
      </trkpt>
      <trkpt lat="50.931803" lon="6.940570">
        <ele>56.834559</ele>
        <time>2026-08-28T13:21:19.524Z</time>
      </trkpt>
      <trkpt lat="50.932020" lon="6.940470">
        <ele>56.968420</ele>
        <time>2026-08-28T13:21:26.123Z</time>
      </trkpt>
      <trkpt lat="50.932288" lon="6.940353">
        <ele>57.133082</ele>
        <time>2026-08-28T13:21:34.053Z</time>
      </trkpt>
      <trkpt lat="50.932346" lon="6.940328">
        <ele>57.168686</ele>
        <time>2026-08-28T13:21:35.738Z</time>
      </trkpt>
      <trkpt lat="50.933044" lon="6.940024">
        <ele>57.116888</ele>
        <time>2026-08-28T13:21:56.440Z</time>
      </trkpt>
      <trkpt lat="50.933126" lon="6.939993">
        <ele>57.106976</ele>
        <time>2026-08-28T13:21:58.640Z</time>
      </trkpt>
      <trkpt lat="50.933228" lon="6.939952">
        <ele>57.094604</ele>
        <time>2026-08-28T13:22:01.383Z</time>
      </trkpt>
      <trkpt lat="50.933668" lon="6.939706">
        <ele>57.039750</ele>
        <time>2026-08-28T13:22:13.340Z</time>
      </trkpt>
      <trkpt lat="50.934165" lon="6.939497">
        <ele>56.963406</ele>
        <time>2026-08-28T13:22:25.778Z</time>
      </trkpt>
      <trkpt lat="50.934561" lon="6.939336">
        <ele>56.781274</ele>
        <time>2026-08-28T13:22:35.480Z</time>
      </trkpt>
      <trkpt lat="50.934664" lon="6.939330">
        <ele>56.735353</ele>
        <time>2026-08-28T13:22:37.923Z</time>
      </trkpt>
      <trkpt lat="50.935195" lon="6.939191">
        <ele>56.495575</ele>
        <time>2026-08-28T13:22:51.523Z</time>
      </trkpt>
      <trkpt lat="50.935345" lon="6.939163">
        <ele>56.428284</ele>
        <time>2026-08-28T13:22:55.505Z</time>
      </trkpt>
      <trkpt lat="50.935367" lon="6.939253">
        <ele>56.401180</ele>
        <time>2026-08-28T13:22:57.136Z</time>
      </trkpt>
      <trkpt lat="50.935418" lon="6.939245">
        <ele>56.378347</ele>
        <time>2026-08-28T13:22:58.564Z</time>
      </trkpt>
      <trkpt lat="50.935417" lon="6.939463">
        <ele>56.317136</ele>
        <time>2026-08-28T13:23:02.272Z</time>
      </trkpt>
      <trkpt lat="50.935481" lon="6.939894">
        <ele>56.192808</ele>
        <time>2026-08-28T13:23:09.756Z</time>
      </trkpt>
      <trkpt lat="50.935691" lon="6.940339">
        <ele>55.995148</ele>
        <time>2026-08-28T13:23:18.621Z</time>
      </trkpt>
      <trkpt lat="50.935847" lon="6.940631">
        <ele>55.857255</ele>
        <time>2026-08-28T13:23:24.709Z</time>
      </trkpt>
      <trkpt lat="50.935887" lon="6.940738">
        <ele>55.812441</ele>
        <time>2026-08-28T13:23:26.606Z</time>
      </trkpt>
      <trkpt lat="50.935904" lon="6.940960">
        <ele>55.731885</ele>
        <time>2026-08-28T13:23:30.055Z</time>
      </trkpt>
      <trkpt lat="50.935873" lon="6.941334">
        <ele>55.596005</ele>
        <time>2026-08-28T13:23:35.853Z</time>
      </trkpt>
      <trkpt lat="50.935824" lon="6.941902">
        <ele>55.389496</ele>
        <time>2026-08-28T13:23:44.625Z</time>
      </trkpt>
      <trkpt lat="50.935791" lon="6.942287">
        <ele>55.249537</ele>
        <time>2026-08-28T13:23:50.837Z</time>
      </trkpt>
      <trkpt lat="50.935825" lon="6.942295">
        <ele>55.229890</ele>
        <time>2026-08-28T13:23:51.632Z</time>
      </trkpt>
      <trkpt lat="50.935837" lon="6.942169">
        <ele>55.183988</ele>
        <time>2026-08-28T13:23:53.707Z</time>
      </trkpt>
      <trkpt lat="50.935923" lon="6.942334">
        <ele>55.231858</ele>
        <time>2026-08-28T13:23:57.211Z</time>
      </trkpt>
      <trkpt lat="50.935930" lon="6.942232">
        <ele>55.289810</ele>
        <time>2026-08-28T13:23:59.004Z</time>
      </trkpt>
      <trkpt lat="50.935967" lon="6.942239">
        <ele>55.323207</ele>
        <time>2026-08-28T13:23:59.914Z</time>
      </trkpt>
      <trkpt lat="50.935994" lon="6.942244">
        <ele>55.347571</ele>
        <time>2026-08-28T13:24:00.660Z</time>
      </trkpt>
      <trkpt lat="50.936004" lon="6.942245">
        <ele>55.356551</ele>
        <time>2026-08-28T13:24:01.049Z</time>
      </trkpt>
      <trkpt lat="50.936038" lon="6.942062">
        <ele>55.464311</ele>
        <time>2026-08-28T13:24:05.313Z</time>
      </trkpt>
      <trkpt lat="50.936073" lon="6.941646">
        <ele>55.701360</ele>
        <time>2026-08-28T13:24:15.758Z</time>
      </trkpt>
      <trkpt lat="50.936136" lon="6.941211">
        <ele>55.953459</ele>
        <time>2026-08-28T13:24:27.827Z</time>
      </trkpt>
      <trkpt lat="50.936209" lon="6.940975">
        <ele>56.101947</ele>
        <time>2026-08-28T13:24:34.851Z</time>
      </trkpt>
      <trkpt lat="50.936236" lon="6.940886">
        <ele>56.157737</ele>
        <time>2026-08-28T13:24:37.438Z</time>
      </trkpt>
      <trkpt lat="50.936252" lon="6.940706">
        <ele>56.260410</ele>
        <time>2026-08-28T13:24:42.378Z</time>
      </trkpt>
      <trkpt lat="50.936456" lon="6.940763">
        <ele>56.446062</ele>
        <time>2026-08-28T13:24:49.604Z</time>
      </trkpt>
      <trkpt lat="50.936833" lon="6.941049">
        <ele>56.747480</ele>
        <time>2026-08-28T13:25:03.773Z</time>
      </trkpt>
      <trkpt lat="50.937371" lon="6.941439">
        <ele>56.546164</ele>
        <time>2026-08-28T13:25:21.346Z</time>
      </trkpt>
      <trkpt lat="50.938017" lon="6.941873">
        <ele>56.307399</ele>
        <time>2026-08-28T13:25:38.720Z</time>
      </trkpt>
      <trkpt lat="50.938260" lon="6.942068">
        <ele>56.214718</ele>
        <time>2026-08-28T13:25:44.637Z</time>
      </trkpt>
      <trkpt lat="50.938257" lon="6.942225">
        <ele>56.181029</ele>
        <time>2026-08-28T13:25:47.515Z</time>
      </trkpt>
      <trkpt lat="50.938324" lon="6.942279">
        <ele>56.155453</ele>
        <time>2026-08-28T13:25:49.085Z</time>
      </trkpt>
      <trkpt lat="50.938707" lon="6.942549">
        <ele>55.769243</ele>
        <time>2026-08-28T13:26:01.177Z</time>
      </trkpt>
      <trkpt lat="50.938922" lon="6.942621">
        <ele>55.566713</ele>
        <time>2026-08-28T13:26:07.972Z</time>
      </trkpt>
      <trkpt lat="50.939448" lon="6.942732">
        <ele>55.077631</ele>
        <time>2026-08-28T13:26:20.025Z</time>
      </trkpt>
      <trkpt lat="50.939538" lon="6.942747">
        <ele>54.994222</ele>
        <time>2026-08-28T13:26:22.122Z</time>
      </trkpt>
      <trkpt lat="50.939590" lon="6.942754">
        <ele>54.946121</ele>
        <time>2026-08-28T13:26:23.305Z</time>
      </trkpt>
      <trkpt lat="50.939664" lon="6.942765">
        <ele>54.877617</ele>
        <time>2026-08-28T13:26:25.082Z</time>
      </trkpt>
      <trkpt lat="50.939876" lon="6.942799">
        <ele>54.681221</ele>
        <time>2026-08-28T13:26:30.141Z</time>
      </trkpt>
      <trkpt lat="50.940008" lon="6.942820">
        <ele>54.558947</ele>
        <time>2026-08-28T13:26:33.501Z</time>
      </trkpt>
      <trkpt lat="50.940009" lon="6.943227">
        <ele>54.745646</ele>
        <time>2026-08-28T13:26:40.741Z</time>
      </trkpt>
      <trkpt lat="50.940041" lon="6.943641">
        <ele>55.088926</ele>
        <time>2026-08-28T13:26:49.366Z</time>
      </trkpt>
      <trkpt lat="50.940150" lon="6.944258">
        <ele>55.616303</ele>
        <time>2026-08-28T13:27:04.629Z</time>
      </trkpt>
      <trkpt lat="50.940286" lon="6.944765">
        <ele>56.069802</ele>
        <time>2026-08-28T13:27:16.295Z</time>
      </trkpt>
      <trkpt lat="50.940333" lon="6.944901">
        <ele>56.197460</ele>
        <time>2026-08-28T13:27:19.517Z</time>
      </trkpt>
      <trkpt lat="50.940548" lon="6.945346">
        <ele>56.658961</ele>
        <time>2026-08-28T13:27:31.905Z</time>
      </trkpt>
      <trkpt lat="50.940615" lon="6.945468">
        <ele>56.792149</ele>
        <time>2026-08-28T13:27:35.288Z</time>
      </trkpt>
      <trkpt lat="50.940657" lon="6.945611">
        <ele>56.883416</ele>
        <time>2026-08-28T13:27:38.891Z</time>
      </trkpt>
      <trkpt lat="50.940866" lon="6.946071">
        <ele>57.110709</ele>
        <time>2026-08-28T13:27:50.963Z</time>
      </trkpt>
      <trkpt lat="50.941012" lon="6.946510">
        <ele>57.309658</ele>
        <time>2026-08-28T13:28:00.920Z</time>
      </trkpt>
      <trkpt lat="50.941044" lon="6.946781">
        <ele>57.420163</ele>
        <time>2026-08-28T13:28:05.899Z</time>
      </trkpt>
      <trkpt lat="50.941039" lon="6.946998">
        <ele>57.507192</ele>
        <time>2026-08-28T13:28:09.554Z</time>
      </trkpt>
      <trkpt lat="50.940970" lon="6.947092">
        <ele>57.565032</ele>
        <time>2026-08-28T13:28:12.031Z</time>
      </trkpt>
      <trkpt lat="50.940923" lon="6.947411">
        <ele>57.696333</ele>
        <time>2026-08-28T13:28:17.456Z</time>
      </trkpt>
      <trkpt lat="50.940928" lon="6.947664">
        <ele>57.797783</ele>
        <time>2026-08-28T13:28:21.881Z</time>
      </trkpt>
      <trkpt lat="50.940908" lon="6.947842">
        <ele>57.870249</ele>
        <time>2026-08-28T13:28:25.078Z</time>
      </trkpt>
      <trkpt lat="50.941042" lon="6.947836">
        <ele>57.955514</ele>
        <time>2026-08-28T13:28:28.843Z</time>
      </trkpt>
      <trkpt lat="50.941163" lon="6.947824">
        <ele>57.970950</ele>
        <time>2026-08-28T13:28:31.975Z</time>
      </trkpt>
      <trkpt lat="50.941351" lon="6.947781">
        <ele>57.913503</ele>
        <time>2026-08-28T13:28:37.083Z</time>
      </trkpt>
      <trkpt lat="50.941863" lon="6.947701">
        <ele>57.757903</ele>
        <time>2026-08-28T13:28:51.037Z</time>
      </trkpt>
      <trkpt lat="50.942325" lon="6.947635">
        <ele>57.617609</ele>
        <time>2026-08-28T13:29:03.873Z</time>
      </trkpt>
      <trkpt lat="50.942813" lon="6.947599">
        <ele>57.469857</ele>
        <time>2026-08-28T13:29:15.995Z</time>
      </trkpt>
      <trkpt lat="50.943020" lon="6.947563">
        <ele>57.232444</ele>
        <time>2026-08-28T13:29:20.486Z</time>
      </trkpt>
      <trkpt lat="50.943074" lon="6.947548">
        <ele>57.143490</ele>
        <time>2026-08-28T13:29:21.609Z</time>
      </trkpt>
      <trkpt lat="50.943180" lon="6.947519">
        <ele>56.968954</ele>
        <time>2026-08-28T13:29:23.858Z</time>
      </trkpt>
      <trkpt lat="50.943286" lon="6.947491">
        <ele>56.794589</ele>
        <time>2026-08-28T13:29:26.146Z</time>
      </trkpt>
      <trkpt lat="50.943570" lon="6.947782">
        <ele>56.246064</ele>
        <time>2026-08-28T13:29:33.433Z</time>
      </trkpt>
      <trkpt lat="50.943578" lon="6.947791">
        <ele>56.230152</ele>
        <time>2026-08-28T13:29:33.655Z</time>
      </trkpt>
      <trkpt lat="50.943718" lon="6.947946">
        <ele>55.953171</ele>
        <time>2026-08-28T13:29:37.292Z</time>
      </trkpt>
      <trkpt lat="50.943872" lon="6.948124">
        <ele>55.644040</ele>
        <time>2026-08-28T13:29:41.313Z</time>
      </trkpt>
      <trkpt lat="50.944061" lon="6.948439">
        <ele>55.199328</ele>
        <time>2026-08-28T13:29:47.062Z</time>
      </trkpt>
      <trkpt lat="50.944165" lon="6.948664">
        <ele>54.914030</ele>
        <time>2026-08-28T13:29:50.761Z</time>
      </trkpt>
      <trkpt lat="50.944524" lon="6.949595">
        <ele>54.211872</ele>
        <time>2026-08-28T13:30:06.137Z</time>
      </trkpt>
      <trkpt lat="50.944655" lon="6.949775">
        <ele>54.090037</ele>
        <time>2026-08-28T13:30:10.473Z</time>
      </trkpt>
      <trkpt lat="50.944985" lon="6.950133">
        <ele>53.808973</ele>
        <time>2026-08-28T13:30:20.588Z</time>
      </trkpt>
      <trkpt lat="50.945193" lon="6.950371">
        <ele>53.628674</ele>
        <time>2026-08-28T13:30:26.871Z</time>
      </trkpt>
      <trkpt lat="50.945280" lon="6.950478">
        <ele>53.551284</ele>
        <time>2026-08-28T13:30:29.534Z</time>
      </trkpt>
      <trkpt lat="50.945286" lon="6.950485">
        <ele>53.546048</ele>
        <time>2026-08-28T13:30:29.717Z</time>
      </trkpt>
      <trkpt lat="50.945692" lon="6.950921">
        <ele>53.268689</ele>
        <time>2026-08-28T13:30:41.780Z</time>
      </trkpt>
      <trkpt lat="50.946284" lon="6.951624">
        <ele>53.311255</ele>
        <time>2026-08-28T13:31:01.513Z</time>
      </trkpt>
      <trkpt lat="50.946018" lon="6.952525">
        <ele>53.347346</ele>
        <time>2026-08-28T13:31:18.893Z</time>
      </trkpt>
      <trkpt lat="50.946219" lon="6.952801">
        <ele>53.362647</ele>
        <time>2026-08-28T13:31:26.317Z</time>
      </trkpt>
      <trkpt lat="50.946366" lon="6.953011">
        <ele>53.434144</ele>
        <time>2026-08-28T13:31:31.709Z</time>
      </trkpt>
      <trkpt lat="50.946716" lon="6.954047">
        <ele>53.848784</ele>
        <time>2026-08-28T13:31:52.355Z</time>
      </trkpt>
      <trkpt lat="50.946853" lon="6.954450">
        <ele>54.010302</ele>
        <time>2026-08-28T13:32:00.739Z</time>
      </trkpt>
      <trkpt lat="50.947009" lon="6.954938">
        <ele>54.203318</ele>
        <time>2026-08-28T13:32:11.603Z</time>
      </trkpt>
      <trkpt lat="50.947046" lon="6.955051">
        <ele>54.248237</ele>
        <time>2026-08-28T13:32:14.130Z</time>
      </trkpt>
      <trkpt lat="50.947165" lon="6.955414">
        <ele>54.396909</ele>
        <time>2026-08-28T13:32:22.375Z</time>
      </trkpt>
      <trkpt lat="50.947481" lon="6.956513">
        <ele>54.923085</ele>
        <time>2026-08-28T13:32:46.600Z</time>
      </trkpt>
      <trkpt lat="50.947472" lon="6.956644">
        <ele>54.980482</ele>
        <time>2026-08-28T13:32:49.868Z</time>
      </trkpt>
      <trkpt lat="50.947572" lon="6.956649">
        <ele>55.049649</ele>
        <time>2026-08-28T13:32:53.048Z</time>
      </trkpt>
      <trkpt lat="50.948239" lon="6.956733">
        <ele>55.512216</ele>
        <time>2026-08-28T13:33:13.260Z</time>
      </trkpt>
      <trkpt lat="50.948519" lon="6.956777">
        <ele>55.450914</ele>
        <time>2026-08-28T13:33:23.216Z</time>
      </trkpt>
      <trkpt lat="50.949122" lon="6.956852">
        <ele>54.669666</ele>
        <time>2026-08-28T13:33:42.241Z</time>
      </trkpt>
      <trkpt lat="50.949312" lon="6.957227">
        <ele>54.278071</ele>
        <time>2026-08-28T13:33:51.458Z</time>
      </trkpt>
      <trkpt lat="50.949353" lon="6.957330">
        <ele>54.178927</ele>
        <time>2026-08-28T13:33:53.692Z</time>
      </trkpt>
      <trkpt lat="50.949383" lon="6.957433">
        <ele>54.086587</ele>
        <time>2026-08-28T13:33:55.875Z</time>
      </trkpt>
      <trkpt lat="50.949515" lon="6.957590">
        <ele>53.873535</ele>
        <time>2026-08-28T13:33:59.493Z</time>
      </trkpt>
      <trkpt lat="50.949758" lon="6.958072">
        <ele>53.371188</ele>
        <time>2026-08-28T13:34:07.611Z</time>
      </trkpt>
      <trkpt lat="50.949879" lon="6.958318">
        <ele>53.109611</ele>
        <time>2026-08-28T13:34:11.599Z</time>
      </trkpt>
      <trkpt lat="50.949872" lon="6.958415">
        <ele>53.026747</ele>
        <time>2026-08-28T13:34:12.872Z</time>
      </trkpt>
      <trkpt lat="50.950085" lon="6.958503">
        <ele>52.730240</ele>
        <time>2026-08-28T13:34:18.854Z</time>
      </trkpt>
      <trkpt lat="50.950081" lon="6.958605">
        <ele>52.643504</ele>
        <time>2026-08-28T13:34:20.690Z</time>
      </trkpt>
      <trkpt lat="50.950077" lon="6.958856">
        <ele>52.430410</ele>
        <time>2026-08-28T13:34:25.055Z</time>
      </trkpt>
      <trkpt lat="50.950151" lon="6.958883">
        <ele>52.328120</ele>
        <time>2026-08-28T13:34:26.568Z</time>
      </trkpt>
      <trkpt lat="50.950450" lon="6.959002">
        <ele>51.912849</ele>
        <time>2026-08-28T13:34:33.228Z</time>
      </trkpt>
      <trkpt lat="50.950576" lon="6.959052">
        <ele>51.737883</ele>
        <time>2026-08-28T13:34:36.372Z</time>
      </trkpt>
      <trkpt lat="50.950882" lon="6.959208">
        <ele>51.304911</ele>
        <time>2026-08-28T13:34:44.833Z</time>
      </trkpt>
      <trkpt lat="50.950969" lon="6.959262">
        <ele>51.179066</ele>
        <time>2026-08-28T13:34:47.693Z</time>
      </trkpt>
      <trkpt lat="50.951108" lon="6.959351">
        <ele>50.977150</ele>
        <time>2026-08-28T13:34:52.011Z</time>
      </trkpt>
      <trkpt lat="50.951259" lon="6.959505">
        <ele>50.907048</ele>
        <time>2026-08-28T13:34:57.009Z</time>
      </trkpt>
      <trkpt lat="50.951388" lon="6.959687">
        <ele>50.968248</ele>
        <time>2026-08-28T13:35:01.656Z</time>
      </trkpt>
      <trkpt lat="50.951629" lon="6.960038">
        <ele>51.084228</ele>
        <time>2026-08-28T13:35:10.358Z</time>
      </trkpt>
      <trkpt lat="50.951727" lon="6.960188">
        <ele>51.132502</ele>
        <time>2026-08-28T13:35:14.180Z</time>
      </trkpt>
      <trkpt lat="50.951833" lon="6.960349">
        <ele>51.184525</ele>
        <time>2026-08-28T13:35:18.392Z</time>
      </trkpt>
      <trkpt lat="50.951907" lon="6.960462">
        <ele>51.220935</ele>
        <time>2026-08-28T13:35:21.521Z</time>
      </trkpt>
      <trkpt lat="50.951937" lon="6.960508">
        <ele>51.235726</ele>
        <time>2026-08-28T13:35:22.756Z</time>
      </trkpt>
      <trkpt lat="50.952001" lon="6.960607">
        <ele>51.267414</ele>
        <time>2026-08-28T13:35:25.548Z</time>
      </trkpt>
      <trkpt lat="50.952109" lon="6.960746">
        <ele>51.316717</ele>
        <time>2026-08-28T13:35:29.882Z</time>
      </trkpt>
      <trkpt lat="50.952305" lon="6.961051">
        <ele>51.414044</ele>
        <time>2026-08-28T13:35:38.390Z</time>
      </trkpt>
      <trkpt lat="50.952404" lon="6.961211">
        <ele>51.464142</ele>
        <time>2026-08-28T13:35:42.724Z</time>
      </trkpt>
      <trkpt lat="50.952597" lon="6.961528">
        <ele>51.518666</ele>
        <time>2026-08-28T13:35:50.661Z</time>
      </trkpt>
      <trkpt lat="50.952772" lon="6.961814">
        <ele>51.534624</ele>
        <time>2026-08-28T13:35:56.772Z</time>
      </trkpt>
      <trkpt lat="50.953190" lon="6.962555">
        <ele>51.574436</ele>
        <time>2026-08-28T13:36:12.617Z</time>
      </trkpt>
      <trkpt lat="50.953212" lon="6.962595">
        <ele>51.576562</ele>
        <time>2026-08-28T13:36:13.488Z</time>
      </trkpt>
      <trkpt lat="50.953336" lon="6.962821">
        <ele>51.588557</ele>
        <time>2026-08-28T13:36:18.668Z</time>
      </trkpt>
      <trkpt lat="50.953436" lon="6.963018">
        <ele>51.598684</ele>
        <time>2026-08-28T13:36:23.151Z</time>
      </trkpt>
      <trkpt lat="50.953553" lon="6.963256">
        <ele>51.610767</ele>
        <time>2026-08-28T13:36:28.437Z</time>
      </trkpt>
      <trkpt lat="50.953799" lon="6.963802">
        <ele>51.719513</ele>
        <time>2026-08-28T13:36:40.451Z</time>
      </trkpt>
      <trkpt lat="50.953885" lon="6.963671">
        <ele>51.770494</ele>
        <time>2026-08-28T13:36:43.781Z</time>
      </trkpt>
      <trkpt lat="50.953962" lon="6.963549">
        <ele>51.817028</ele>
        <time>2026-08-28T13:36:46.809Z</time>
      </trkpt>
      <trkpt lat="50.954010" lon="6.963399">
        <ele>51.862361</ele>
        <time>2026-08-28T13:36:49.932Z</time>
      </trkpt>
      <trkpt lat="50.954470" lon="6.963425">
        <ele>52.059244</ele>
        <time>2026-08-28T13:37:04.973Z</time>
      </trkpt>
      <trkpt lat="50.955356" lon="6.963462">
        <ele>52.246013</ele>
        <time>2026-08-28T13:37:30.700Z</time>
      </trkpt>
      <trkpt lat="50.955915" lon="6.963485">
        <ele>51.477558</ele>
        <time>2026-08-28T13:37:43.627Z</time>
      </trkpt>
      <trkpt lat="50.956488" lon="6.963527">
        <ele>50.689282</ele>
        <time>2026-08-28T13:37:55.509Z</time>
      </trkpt>
      <trkpt lat="50.956671" lon="6.963539">
        <ele>50.437582</ele>
        <time>2026-08-28T13:37:59.212Z</time>
      </trkpt>
      <trkpt lat="50.957334" lon="6.963562">
        <ele>49.623319</ele>
        <time>2026-08-28T13:38:13.654Z</time>
      </trkpt>
      <trkpt lat="50.957878" lon="6.963569">
        <ele>49.059581</ele>
        <time>2026-08-28T13:38:26.327Z</time>
      </trkpt>
      <trkpt lat="50.957901" lon="6.963569">
        <ele>49.035747</ele>
        <time>2026-08-28T13:38:26.866Z</time>
      </trkpt>
      <trkpt lat="50.958070" lon="6.963569">
        <ele>48.860621</ele>
        <time>2026-08-28T13:38:30.871Z</time>
      </trkpt>
      <trkpt lat="50.958170" lon="6.963567">
        <ele>48.756988</ele>
        <time>2026-08-28T13:38:33.237Z</time>
      </trkpt>
      <trkpt lat="50.958177" lon="6.963567">
        <ele>48.749735</ele>
        <time>2026-08-28T13:38:33.414Z</time>
      </trkpt>
      <trkpt lat="50.958236" lon="6.963553">
        <ele>48.687917</ele>
        <time>2026-08-28T13:38:34.811Z</time>
      </trkpt>
      <trkpt lat="50.958392" lon="6.963505">
        <ele>48.523254</ele>
        <time>2026-08-28T13:38:38.593Z</time>
      </trkpt>
      <trkpt lat="50.958457" lon="6.963659">
        <ele>48.402255</ele>
        <time>2026-08-28T13:38:42.340Z</time>
      </trkpt>
      <trkpt lat="50.959514" lon="6.963718">
        <ele>47.615707</ele>
        <time>2026-08-28T13:39:55.853Z</time>
      </trkpt>
      <trkpt lat="50.959531" lon="6.963718">
        <ele>47.605351</ele>
        <time>2026-08-28T13:39:56.275Z</time>
      </trkpt>
      <trkpt lat="50.959784" lon="6.963736">
        <ele>47.451076</ele>
        <time>2026-08-28T13:40:02.342Z</time>
      </trkpt>
      <trkpt lat="50.959782" lon="6.963684">
        <ele>47.431086</ele>
        <time>2026-08-28T13:40:03.420Z</time>
      </trkpt>
      <trkpt lat="50.959544" lon="6.963566">
        <ele>47.279198</ele>
        <time>2026-08-28T13:40:11.626Z</time>
      </trkpt>
      <trkpt lat="50.959504" lon="6.963479">
        <ele>47.237869</ele>
        <time>2026-08-28T13:40:13.876Z</time>
      </trkpt>
      <trkpt lat="50.959724" lon="6.963489">
        <ele>47.103795</ele>
        <time>2026-08-28T13:40:19.328Z</time>
      </trkpt>
      <trkpt lat="50.959771" lon="6.963493">
        <ele>47.075123</ele>
        <time>2026-08-28T13:40:20.475Z</time>
      </trkpt>
      <trkpt lat="50.959934" lon="6.963504">
        <ele>46.975738</ele>
        <time>2026-08-28T13:40:24.549Z</time>
      </trkpt>
      <trkpt lat="50.960486" lon="6.963540">
        <ele>46.742512</ele>
        <time>2026-08-28T13:40:38.408Z</time>
      </trkpt>
      <trkpt lat="50.960930" lon="6.963569">
        <ele>46.558613</ele>
        <time>2026-08-28T13:40:49.505Z</time>
      </trkpt>
      <trkpt lat="50.961031" lon="6.963571">
        <ele>46.516812</ele>
        <time>2026-08-28T13:40:52.024Z</time>
      </trkpt>
      <trkpt lat="50.961079" lon="6.963710">
        <ele>46.475493</ele>
        <time>2026-08-28T13:40:54.491Z</time>
      </trkpt>
      <trkpt lat="50.961180" lon="6.963843">
        <ele>46.421190</ele>
        <time>2026-08-28T13:40:57.743Z</time>
      </trkpt>
      <trkpt lat="50.961380" lon="6.963999">
        <ele>46.328974</ele>
        <time>2026-08-28T13:41:03.267Z</time>
      </trkpt>
      <trkpt lat="50.962147" lon="6.964472">
        <ele>45.872163</ele>
        <time>2026-08-28T13:41:23.930Z</time>
      </trkpt>
      <trkpt lat="50.962675" lon="6.964876">
        <ele>45.506215</ele>
        <time>2026-08-28T13:41:38.562Z</time>
      </trkpt>
      <trkpt lat="50.962729" lon="6.964927">
        <ele>45.466985</ele>
        <time>2026-08-28T13:41:40.056Z</time>
      </trkpt>
      <trkpt lat="50.962750" lon="6.964943">
        <ele>45.452442</ele>
        <time>2026-08-28T13:41:40.599Z</time>
      </trkpt>
      <trkpt lat="50.962982" lon="6.965113">
        <ele>45.292908</ele>
        <time>2026-08-28T13:41:46.521Z</time>
      </trkpt>
      <trkpt lat="50.963239" lon="6.965232">
        <ele>45.125762</ele>
        <time>2026-08-28T13:41:52.672Z</time>
      </trkpt>
      <trkpt lat="50.963504" lon="6.965304">
        <ele>45.023388</ele>
        <time>2026-08-28T13:41:58.864Z</time>
      </trkpt>
      <trkpt lat="50.963562" lon="6.965301">
        <ele>45.004583</ele>
        <time>2026-08-28T13:42:00.203Z</time>
      </trkpt>
      <trkpt lat="50.963800" lon="6.965164">
        <ele>44.922545</ele>
        <time>2026-08-28T13:42:06.045Z</time>
      </trkpt>
      <trkpt lat="50.964055" lon="6.965035">
        <ele>44.835818</ele>
        <time>2026-08-28T13:42:12.260Z</time>
      </trkpt>
      <trkpt lat="50.965502" lon="6.964783">
        <ele>44.911848</ele>
        <time>2026-08-28T13:42:52.184Z</time>
      </trkpt>
      <trkpt lat="50.965722" lon="6.964567">
        <ele>45.140156</ele>
        <time>2026-08-28T13:43:00.785Z</time>
      </trkpt>
      <trkpt lat="50.965817" lon="6.964556">
        <ele>45.224231</ele>
        <time>2026-08-28T13:43:04.004Z</time>
      </trkpt>
      <trkpt lat="50.966039" lon="6.964609">
        <ele>45.422383</ele>
        <time>2026-08-28T13:43:11.281Z</time>
      </trkpt>
      <trkpt lat="50.966082" lon="6.964434">
        <ele>45.526804</ele>
        <time>2026-08-28T13:43:15.642Z</time>
      </trkpt>
      <trkpt lat="50.966113" lon="6.964178">
        <ele>45.671716</ele>
        <time>2026-08-28T13:43:21.602Z</time>
      </trkpt>
      <trkpt lat="50.966115" lon="6.964159">
        <ele>45.682424</ele>
        <time>2026-08-28T13:43:22.013Z</time>
      </trkpt>
      <trkpt lat="50.966160" lon="6.963557">
        <ele>46.019412</ele>
        <time>2026-08-28T13:43:34.252Z</time>
      </trkpt>
      <trkpt lat="50.966444" lon="6.963612">
        <ele>46.214003</ele>
        <time>2026-08-28T13:43:42.916Z</time>
      </trkpt>
      <trkpt lat="50.966464" lon="6.963495">
        <ele>46.258845</ele>
        <time>2026-08-28T13:43:48.214Z</time>
      </trkpt>
      <trkpt lat="50.966509" lon="6.963457">
        <ele>46.288780</ele>
        <time>2026-08-28T13:43:51.758Z</time>
      </trkpt>
      <trkpt lat="50.966464" lon="6.963495">
        <ele>46.318715</ele>
        <time>2026-08-28T13:43:55.302Z</time>
      </trkpt>
      <trkpt lat="50.966444" lon="6.963612">
        <ele>46.363557</ele>
        <time>2026-08-28T13:44:00.600Z</time>
      </trkpt>
      <trkpt lat="50.966160" lon="6.963557">
        <ele>46.531593</ele>
        <time>2026-08-28T13:44:09.155Z</time>
      </trkpt>
      <trkpt lat="50.966197" lon="6.963154">
        <ele>46.682233</ele>
        <time>2026-08-28T13:44:16.650Z</time>
      </trkpt>
      <trkpt lat="50.966235" lon="6.962686">
        <ele>46.856772</ele>
        <time>2026-08-28T13:44:24.990Z</time>
      </trkpt>
      <trkpt lat="50.966244" lon="6.962576">
        <ele>46.897802</ele>
        <time>2026-08-28T13:44:26.979Z</time>
      </trkpt>
      <trkpt lat="50.966252" lon="6.962489">
        <ele>46.930323</ele>
        <time>2026-08-28T13:44:28.507Z</time>
      </trkpt>
      <trkpt lat="50.966291" lon="6.962038">
        <ele>47.098706</ele>
        <time>2026-08-28T13:44:36.669Z</time>
      </trkpt>
      <trkpt lat="50.966309" lon="6.961808">
        <ele>47.157167</ele>
        <time>2026-08-28T13:44:40.777Z</time>
      </trkpt>
      <trkpt lat="50.966320" lon="6.961685">
        <ele>47.160311</ele>
        <time>2026-08-28T13:44:42.973Z</time>
      </trkpt>
      <trkpt lat="50.966345" lon="6.961405">
        <ele>47.167466</ele>
        <time>2026-08-28T13:44:48.207Z</time>
      </trkpt>
      <trkpt lat="50.966386" lon="6.960913">
        <ele>47.180024</ele>
        <time>2026-08-28T13:44:57.418Z</time>
      </trkpt>
      <trkpt lat="50.966426" lon="6.960484">
        <ele>47.190997</ele>
        <time>2026-08-28T13:45:04.667Z</time>
      </trkpt>
      <trkpt lat="50.966241" lon="6.960459">
        <ele>47.198456</ele>
        <time>2026-08-28T13:45:09.058Z</time>
      </trkpt>
      <trkpt lat="50.966158" lon="6.960447">
        <ele>47.201805</ele>
        <time>2026-08-28T13:45:10.946Z</time>
      </trkpt>
      <trkpt lat="50.966183" lon="6.960025">
        <ele>47.212530</ele>
        <time>2026-08-28T13:45:19.574Z</time>
      </trkpt>
      <trkpt lat="50.966221" lon="6.959361">
        <ele>47.251932</ele>
        <time>2026-08-28T13:45:34.721Z</time>
      </trkpt>
      <trkpt lat="50.966254" lon="6.958777">
        <ele>47.436396</ele>
        <time>2026-08-28T13:45:48.638Z</time>
      </trkpt>
      <trkpt lat="50.966295" lon="6.958782">
        <ele>47.456938</ele>
        <time>2026-08-28T13:45:49.892Z</time>
      </trkpt>
      <trkpt lat="50.966350" lon="6.957768">
        <ele>47.777123</ele>
        <time>2026-08-28T13:46:08.767Z</time>
      </trkpt>
      <trkpt lat="50.966420" lon="6.956677">
        <ele>48.122128</ele>
        <time>2026-08-28T13:46:29.640Z</time>
      </trkpt>
      <trkpt lat="50.966444" lon="6.956291">
        <ele>48.159152</ele>
        <time>2026-08-28T13:46:36.898Z</time>
      </trkpt>
      <trkpt lat="50.966490" lon="6.955526">
        <ele>48.227096</ele>
        <time>2026-08-28T13:46:49.901Z</time>
      </trkpt>
      <trkpt lat="50.966524" lon="6.954949">
        <ele>48.278333</ele>
        <time>2026-08-28T13:46:59.423Z</time>
      </trkpt>
      <trkpt lat="50.966637" lon="6.953337">
        <ele>48.357943</ele>
        <time>2026-08-28T13:47:27.287Z</time>
      </trkpt>
      <trkpt lat="50.966543" lon="6.952288">
        <ele>48.313606</ele>
        <time>2026-08-28T13:47:45.176Z</time>
      </trkpt>
      <trkpt lat="50.966501" lon="6.951819">
        <ele>48.293784</ele>
        <time>2026-08-28T13:47:52.984Z</time>
      </trkpt>
      <trkpt lat="50.966476" lon="6.951679">
        <ele>48.287695</ele>
        <time>2026-08-28T13:47:55.280Z</time>
      </trkpt>
      <trkpt lat="50.966396" lon="6.951233">
        <ele>48.268291</ele>
        <time>2026-08-28T13:48:02.680Z</time>
      </trkpt>
      <trkpt lat="50.966381" lon="6.951190">
        <ele>48.266234</ele>
        <time>2026-08-28T13:48:03.464Z</time>
      </trkpt>
      <trkpt lat="50.966640" lon="6.950808">
        <ele>48.230528</ele>
        <time>2026-08-28T13:48:12.341Z</time>
      </trkpt>
      <trkpt lat="50.966789" lon="6.950588">
        <ele>48.206801</ele>
        <time>2026-08-28T13:48:17.430Z</time>
      </trkpt>
      <trkpt lat="50.967183" lon="6.949977">
        <ele>48.142579</ele>
        <time>2026-08-28T13:48:31.847Z</time>
      </trkpt>
      <trkpt lat="50.967416" lon="6.949393">
        <ele>48.091809</ele>
        <time>2026-08-28T13:48:43.218Z</time>
      </trkpt>
      <trkpt lat="50.967561" lon="6.949159">
        <ele>48.067700</ele>
        <time>2026-08-28T13:48:48.762Z</time>
      </trkpt>
      <trkpt lat="50.967598" lon="6.949048">
        <ele>48.058477</ele>
        <time>2026-08-28T13:48:50.897Z</time>
      </trkpt>
      <trkpt lat="50.967562" lon="6.948877">
        <ele>48.058649</ele>
        <time>2026-08-28T13:48:54.024Z</time>
      </trkpt>
      <trkpt lat="50.967740" lon="6.948803">
        <ele>48.110101</ele>
        <time>2026-08-28T13:48:59.113Z</time>
      </trkpt>
      <trkpt lat="50.968006" lon="6.948624">
        <ele>48.190885</ele>
        <time>2026-08-28T13:49:07.250Z</time>
      </trkpt>
      <trkpt lat="50.968425" lon="6.948343">
        <ele>48.318071</ele>
        <time>2026-08-28T13:49:20.009Z</time>
      </trkpt>
      <trkpt lat="50.968520" lon="6.948218">
        <ele>48.352570</ele>
        <time>2026-08-28T13:49:23.519Z</time>
      </trkpt>
      <trkpt lat="50.968793" lon="6.947685">
        <ele>48.473554</ele>
        <time>2026-08-28T13:49:36.053Z</time>
      </trkpt>
      <trkpt lat="50.968843" lon="6.947573">
        <ele>48.497730</ele>
        <time>2026-08-28T13:49:38.527Z</time>
      </trkpt>
      <trkpt lat="50.968883" lon="6.947391">
        <ele>48.531675</ele>
        <time>2026-08-28T13:49:42.005Z</time>
      </trkpt>
      <trkpt lat="50.968910" lon="6.947183">
        <ele>48.540294</ele>
        <time>2026-08-28T13:49:45.762Z</time>
      </trkpt>
      <trkpt lat="50.968893" lon="6.946798">
        <ele>48.492770</ele>
        <time>2026-08-28T13:49:52.444Z</time>
      </trkpt>
      <trkpt lat="50.968834" lon="6.946179">
        <ele>48.415681</ele>
        <time>2026-08-28T13:50:03.059Z</time>
      </trkpt>
      <trkpt lat="50.968797" lon="6.945882">
        <ele>48.378401</ele>
        <time>2026-08-28T13:50:08.032Z</time>
      </trkpt>
      <trkpt lat="50.968739" lon="6.945423">
        <ele>48.320755</ele>
        <time>2026-08-28T13:50:15.608Z</time>
      </trkpt>
      <trkpt lat="50.968669" lon="6.945065">
        <ele>48.274596</ele>
        <time>2026-08-28T13:50:21.485Z</time>
      </trkpt>
      <trkpt lat="50.968617" lon="6.944568">
        <ele>48.212559</ele>
        <time>2026-08-28T13:50:29.021Z</time>
      </trkpt>
      <trkpt lat="50.968512" lon="6.943567">
        <ele>48.191193</ele>
        <time>2026-08-28T13:50:44.354Z</time>
      </trkpt>
      <trkpt lat="50.968828" lon="6.943471">
        <ele>48.186037</ele>
        <time>2026-08-28T13:50:52.759Z</time>
      </trkpt>
      <trkpt lat="50.968829" lon="6.943409">
        <ele>48.185411</ele>
        <time>2026-08-28T13:50:54.106Z</time>
      </trkpt>
      <trkpt lat="50.968758" lon="6.943151">
        <ele>48.182570</ele>
        <time>2026-08-28T13:51:00.470Z</time>
      </trkpt>
      <trkpt lat="50.968665" lon="6.942974">
        <ele>48.180244</ele>
        <time>2026-08-28T13:51:05.882Z</time>
      </trkpt>
      <trkpt lat="50.968599" lon="6.942869">
        <ele>48.178746</ele>
        <time>2026-08-28T13:51:08.621Z</time>
      </trkpt>
      <trkpt lat="50.968453" lon="6.942757">
        <ele>48.176148</ele>
        <time>2026-08-28T13:51:13.321Z</time>
      </trkpt>
      <trkpt lat="50.968413" lon="6.942740">
        <ele>48.175484</ele>
        <time>2026-08-28T13:51:14.494Z</time>
      </trkpt>
      <trkpt lat="50.968423" lon="6.942318">
        <ele>48.188307</ele>
        <time>2026-08-28T13:51:22.192Z</time>
      </trkpt>
      <trkpt lat="50.968410" lon="6.942094">
        <ele>48.284287</ele>
        <time>2026-08-28T13:51:26.293Z</time>
      </trkpt>
      <trkpt lat="50.968349" lon="6.941504">
        <ele>48.539396</ele>
        <time>2026-08-28T13:51:38.012Z</time>
      </trkpt>
      <trkpt lat="50.968288" lon="6.940993">
        <ele>48.761310</ele>
        <time>2026-08-28T13:51:48.201Z</time>
      </trkpt>
      <trkpt lat="50.968272" lon="6.940886">
        <ele>48.808234</ele>
        <time>2026-08-28T13:51:50.285Z</time>
      </trkpt>
      <trkpt lat="50.968219" lon="6.940696">
        <ele>48.896900</ele>
        <time>2026-08-28T13:51:54.127Z</time>
      </trkpt>
      <trkpt lat="50.968152" lon="6.940596">
        <ele>48.959199</ele>
        <time>2026-08-28T13:51:56.829Z</time>
      </trkpt>
      <trkpt lat="50.968105" lon="6.940543">
        <ele>48.998256</ele>
        <time>2026-08-28T13:51:58.496Z</time>
      </trkpt>
      <trkpt lat="50.967895" lon="6.940418">
        <ele>49.150206</ele>
        <time>2026-08-28T13:52:05.061Z</time>
      </trkpt>
      <trkpt lat="50.967544" lon="6.940347">
        <ele>49.389942</ele>
        <time>2026-08-28T13:52:15.432Z</time>
      </trkpt>
      <trkpt lat="50.967284" lon="6.940352">
        <ele>49.507476</ele>
        <time>2026-08-28T13:52:23.248Z</time>
      </trkpt>
      <trkpt lat="50.967151" lon="6.940279">
        <ele>49.571028</ele>
        <time>2026-08-28T13:52:27.548Z</time>
      </trkpt>
      <trkpt lat="50.966944" lon="6.940264">
        <ele>49.664610</ele>
        <time>2026-08-28T13:52:34.051Z</time>
      </trkpt>
      <trkpt lat="50.966763" lon="6.940251">
        <ele>49.746436</ele>
        <time>2026-08-28T13:52:39.628Z</time>
      </trkpt>
      <trkpt lat="50.966735" lon="6.940250">
        <ele>49.759084</ele>
        <time>2026-08-28T13:52:40.480Z</time>
      </trkpt>
      <trkpt lat="50.966475" lon="6.940234">
        <ele>49.876592</ele>
        <time>2026-08-28T13:52:48.160Z</time>
      </trkpt>
      <trkpt lat="50.966435" lon="6.940232">
        <ele>49.894666</ele>
        <time>2026-08-28T13:52:49.329Z</time>
      </trkpt>
      <trkpt lat="50.966383" lon="6.940228">
        <ele>49.918178</ele>
        <time>2026-08-28T13:52:50.816Z</time>
      </trkpt>
      <trkpt lat="50.966237" lon="6.940220">
        <ele>49.984153</ele>
        <time>2026-08-28T13:52:54.966Z</time>
      </trkpt>
      <trkpt lat="50.965897" lon="6.940199">
        <ele>50.137818</ele>
        <time>2026-08-28T13:53:04.410Z</time>
      </trkpt>
      <trkpt lat="50.965680" lon="6.940190">
        <ele>50.155531</ele>
        <time>2026-08-28T13:53:10.286Z</time>
      </trkpt>
      <trkpt lat="50.965322" lon="6.940178">
        <ele>49.927166</ele>
        <time>2026-08-28T13:53:19.217Z</time>
      </trkpt>
      <trkpt lat="50.965291" lon="6.940178">
        <ele>49.907396</ele>
        <time>2026-08-28T13:53:19.939Z</time>
      </trkpt>
      <trkpt lat="50.965219" lon="6.939045">
        <ele>49.450018</ele>
        <time>2026-08-28T13:53:37.354Z</time>
      </trkpt>
      <trkpt lat="50.965129" lon="6.938004">
        <ele>49.060776</ele>
        <time>2026-08-28T13:53:53.602Z</time>
      </trkpt>
      <trkpt lat="50.965088" lon="6.937678">
        <ele>49.086530</ele>
        <time>2026-08-28T13:53:58.956Z</time>
      </trkpt>
      <trkpt lat="50.965048" lon="6.937358">
        <ele>49.111805</ele>
        <time>2026-08-28T13:54:04.327Z</time>
      </trkpt>
      <trkpt lat="50.965040" lon="6.937319">
        <ele>49.114983</ele>
        <time>2026-08-28T13:54:05.013Z</time>
      </trkpt>
      <trkpt lat="50.964963" lon="6.936953">
        <ele>49.144877</ele>
        <time>2026-08-28T13:54:11.629Z</time>
      </trkpt>
      <trkpt lat="50.964794" lon="6.936398">
        <ele>49.192636</ele>
        <time>2026-08-28T13:54:23.130Z</time>
      </trkpt>
      <trkpt lat="50.964666" lon="6.936050">
        <ele>49.223858</ele>
        <time>2026-08-28T13:54:31.214Z</time>
      </trkpt>
      <trkpt lat="50.964489" lon="6.935733">
        <ele>49.256679</ele>
        <time>2026-08-28T13:54:39.596Z</time>
      </trkpt>
      <trkpt lat="50.963901" lon="6.934844">
        <ele>49.305991</ele>
        <time>2026-08-28T13:55:04.420Z</time>
      </trkpt>
      <trkpt lat="50.963930" lon="6.934795">
        <ele>49.307901</ele>
        <time>2026-08-28T13:55:05.698Z</time>
      </trkpt>
      <trkpt lat="50.964231" lon="6.934291">
        <ele>49.327627</ele>
        <time>2026-08-28T13:55:18.115Z</time>
      </trkpt>
      <trkpt lat="50.964488" lon="6.934061">
        <ele>49.340931</ele>
        <time>2026-08-28T13:55:25.902Z</time>
      </trkpt>
      <trkpt lat="50.964553" lon="6.933957">
        <ele>49.345092</ele>
        <time>2026-08-28T13:55:28.179Z</time>
      </trkpt>
      <trkpt lat="50.964645" lon="6.933809">
        <ele>49.350998</ele>
        <time>2026-08-28T13:55:31.344Z</time>
      </trkpt>
      <trkpt lat="50.964734" lon="6.933667">
        <ele>49.356688</ele>
        <time>2026-08-28T13:55:34.307Z</time>
      </trkpt>
      <trkpt lat="50.964798" lon="6.933564">
        <ele>49.319533</ele>
        <time>2026-08-28T13:55:36.414Z</time>
      </trkpt>
      <trkpt lat="50.964723" lon="6.933478">
        <ele>49.265562</ele>
        <time>2026-08-28T13:55:39.340Z</time>
      </trkpt>
      <trkpt lat="50.964658" lon="6.933384">
        <ele>49.214270</ele>
        <time>2026-08-28T13:55:42.111Z</time>
      </trkpt>
      <trkpt lat="50.964662" lon="6.933332">
        <ele>49.195022</ele>
        <time>2026-08-28T13:55:43.181Z</time>
      </trkpt>
      <trkpt lat="50.964560" lon="6.933283">
        <ele>49.132852</ele>
        <time>2026-08-28T13:55:46.597Z</time>
      </trkpt>
      <trkpt lat="50.964201" lon="6.932970">
        <ele>48.893917</ele>
        <time>2026-08-28T13:55:59.796Z</time>
      </trkpt>
      <trkpt lat="50.964231" lon="6.932856">
        <ele>48.848521</ele>
        <time>2026-08-28T13:56:01.615Z</time>
      </trkpt>
      <trkpt lat="50.964244" lon="6.932211">
        <ele>48.611411</ele>
        <time>2026-08-28T13:56:11.070Z</time>
      </trkpt>
      <trkpt lat="50.964244" lon="6.931597">
        <ele>48.385812</ele>
        <time>2026-08-28T13:56:20.677Z</time>
      </trkpt>
      <trkpt lat="50.964246" lon="6.931413">
        <ele>48.318196</ele>
        <time>2026-08-28T13:56:23.728Z</time>
      </trkpt>
      <trkpt lat="50.964250" lon="6.930602">
        <ele>48.725376</ele>
        <time>2026-08-28T13:56:38.022Z</time>
      </trkpt>
      <trkpt lat="50.964249" lon="6.930389">
        <ele>48.838532</ele>
        <time>2026-08-28T13:56:42.029Z</time>
      </trkpt>
      <trkpt lat="50.964254" lon="6.930096">
        <ele>48.994242</ele>
        <time>2026-08-28T13:56:47.742Z</time>
      </trkpt>
      <trkpt lat="50.964242" lon="6.928582">
        <ele>49.798599</ele>
        <time>2026-08-28T13:57:19.619Z</time>
      </trkpt>
      <trkpt lat="50.963926" lon="6.927884">
        <ele>49.796967</ele>
        <time>2026-08-28T13:57:37.058Z</time>
      </trkpt>
      <trkpt lat="50.963785" lon="6.927569">
        <ele>49.783252</ele>
        <time>2026-08-28T13:57:44.307Z</time>
      </trkpt>
      <trkpt lat="50.964311" lon="6.926933">
        <ele>49.745998</ele>
        <time>2026-08-28T13:58:00.562Z</time>
      </trkpt>
      <trkpt lat="50.964508" lon="6.926690">
        <ele>49.731941</ele>
        <time>2026-08-28T13:58:06.245Z</time>
      </trkpt>
      <trkpt lat="50.964615" lon="6.926884">
        <ele>49.705205</ele>
        <time>2026-08-28T13:58:10.331Z</time>
      </trkpt>
      <trkpt lat="50.964814" lon="6.926925">
        <ele>49.563599</ele>
        <time>2026-08-28T13:58:15.320Z</time>
      </trkpt>
      <trkpt lat="50.964914" lon="6.926845">
        <ele>49.484581</ele>
        <time>2026-08-28T13:58:18.112Z</time>
      </trkpt>
      <trkpt lat="50.965136" lon="6.926537">
        <ele>49.276544</ele>
        <time>2026-08-28T13:58:25.476Z</time>
      </trkpt>
      <trkpt lat="50.965757" lon="6.925872">
        <ele>48.747976</ele>
        <time>2026-08-28T13:58:44.756Z</time>
      </trkpt>
      <trkpt lat="50.965907" lon="6.925758">
        <ele>48.630625</ele>
        <time>2026-08-28T13:58:49.543Z</time>
      </trkpt>
      <trkpt lat="50.965757" lon="6.925872">
        <ele>48.513274</ele>
        <time>2026-08-28T13:58:54.623Z</time>
      </trkpt>
      <trkpt lat="50.965136" lon="6.926537">
        <ele>48.907289</ele>
        <time>2026-08-28T13:59:20.548Z</time>
      </trkpt>
      <trkpt lat="50.964914" lon="6.926845">
        <ele>49.107307</ele>
        <time>2026-08-28T13:59:30.737Z</time>
      </trkpt>
      <trkpt lat="50.964814" lon="6.926925">
        <ele>49.183280</ele>
        <time>2026-08-28T13:59:34.544Z</time>
      </trkpt>
      <trkpt lat="50.964615" lon="6.926884">
        <ele>49.319428</ele>
        <time>2026-08-28T13:59:41.469Z</time>
      </trkpt>
      <trkpt lat="50.964508" lon="6.926690">
        <ele>49.429619</ele>
        <time>2026-08-28T13:59:46.979Z</time>
      </trkpt>
      <trkpt lat="50.964098" lon="6.925820">
        <ele>49.601770</ele>
        <time>2026-08-28T14:00:06.845Z</time>
      </trkpt>
      <trkpt lat="50.964047" lon="6.925715">
        <ele>49.582681</ele>
        <time>2026-08-28T14:00:09.122Z</time>
      </trkpt>
      <trkpt lat="50.963976" lon="6.925564">
        <ele>49.555554</ele>
        <time>2026-08-28T14:00:12.117Z</time>
      </trkpt>
      <trkpt lat="50.963279" lon="6.924075">
        <ele>49.288481</ele>
        <time>2026-08-28T14:00:40.794Z</time>
      </trkpt>
      <trkpt lat="50.963056" lon="6.923619">
        <ele>49.179952</ele>
        <time>2026-08-28T14:00:49.834Z</time>
      </trkpt>
      <trkpt lat="50.962848" lon="6.923131">
        <ele>49.058521</ele>
        <time>2026-08-28T14:00:59.121Z</time>
      </trkpt>
      <trkpt lat="50.962415" lon="6.922250">
        <ele>48.828224</ele>
        <time>2026-08-28T14:01:16.869Z</time>
      </trkpt>
      <trkpt lat="50.961956" lon="6.921286">
        <ele>48.839359</ele>
        <time>2026-08-28T14:01:36.420Z</time>
      </trkpt>
      <trkpt lat="50.961706" lon="6.920731">
        <ele>49.077590</ele>
        <time>2026-08-28T14:01:48.227Z</time>
      </trkpt>
      <trkpt lat="50.960949" lon="6.919192">
        <ele>49.753387</ele>
        <time>2026-08-28T14:02:26.488Z</time>
      </trkpt>
      <trkpt lat="50.960662" lon="6.918686">
        <ele>49.974711</ele>
        <time>2026-08-28T14:02:40.496Z</time>
      </trkpt>
      <trkpt lat="50.960569" lon="6.918611">
        <ele>50.028539</ele>
        <time>2026-08-28T14:02:43.812Z</time>
      </trkpt>
      <trkpt lat="50.960491" lon="6.918535">
        <ele>50.075766</ele>
        <time>2026-08-28T14:02:46.646Z</time>
      </trkpt>
      <trkpt lat="50.960429" lon="6.918441">
        <ele>50.120006</ele>
        <time>2026-08-28T14:02:49.318Z</time>
      </trkpt>
      <trkpt lat="50.959997" lon="6.917478">
        <ele>50.504288</ele>
        <time>2026-08-28T14:03:10.279Z</time>
      </trkpt>
      <trkpt lat="50.959482" lon="6.916422">
        <ele>50.435940</ele>
        <time>2026-08-28T14:03:31.101Z</time>
      </trkpt>
      <trkpt lat="50.959302" lon="6.916131">
        <ele>50.371093</ele>
        <time>2026-08-28T14:03:37.308Z</time>
      </trkpt>
      <trkpt lat="50.959541" lon="6.915551">
        <ele>50.260896</ele>
        <time>2026-08-28T14:03:47.985Z</time>
      </trkpt>
      <trkpt lat="50.959669" lon="6.915210">
        <ele>50.197783</ele>
        <time>2026-08-28T14:03:54.506Z</time>
      </trkpt>
      <trkpt lat="50.959860" lon="6.914606">
        <ele>50.286241</ele>
        <time>2026-08-28T14:04:06.383Z</time>
      </trkpt>
      <trkpt lat="50.959783" lon="6.914563">
        <ele>50.336908</ele>
        <time>2026-08-28T14:04:08.813Z</time>
      </trkpt>
      <trkpt lat="50.959756" lon="6.914547">
        <ele>50.354797</ele>
        <time>2026-08-28T14:04:09.674Z</time>
      </trkpt>
      <trkpt lat="50.958626" lon="6.913777">
        <ele>51.118099</ele>
        <time>2026-08-28T14:04:46.926Z</time>
      </trkpt>
      <trkpt lat="50.958582" lon="6.913746">
        <ele>51.147980</ele>
        <time>2026-08-28T14:04:48.412Z</time>
      </trkpt>
      <trkpt lat="50.958513" lon="6.913693">
        <ele>51.195560</ele>
        <time>2026-08-28T14:04:50.750Z</time>
      </trkpt>
      <trkpt lat="50.957808" lon="6.913113">
        <ele>51.432648</ele>
        <time>2026-08-28T14:05:15.182Z</time>
      </trkpt>
      <trkpt lat="50.956898" lon="6.912267">
        <ele>51.693268</ele>
        <time>2026-08-28T14:05:43.407Z</time>
      </trkpt>
      <trkpt lat="50.957040" lon="6.911927">
        <ele>51.631603</ele>
        <time>2026-08-28T14:05:49.608Z</time>
      </trkpt>
      <trkpt lat="50.957057" lon="6.911886">
        <ele>51.619654</ele>
        <time>2026-08-28T14:05:50.358Z</time>
      </trkpt>
      <trkpt lat="50.957104" lon="6.911769">
        <ele>51.585875</ele>
        <time>2026-08-28T14:05:52.474Z</time>
      </trkpt>
      <trkpt lat="50.957320" lon="6.911223">
        <ele>51.428928</ele>
        <time>2026-08-28T14:06:02.284Z</time>
      </trkpt>
      <trkpt lat="50.957426" lon="6.910917">
        <ele>51.343921</ele>
        <time>2026-08-28T14:06:07.752Z</time>
      </trkpt>
      <trkpt lat="50.957527" lon="6.910638">
        <ele>51.265590</ele>
        <time>2026-08-28T14:06:12.798Z</time>
      </trkpt>
      <trkpt lat="50.957612" lon="6.910418">
        <ele>51.202766</ele>
        <time>2026-08-28T14:06:16.838Z</time>
      </trkpt>
      <trkpt lat="50.957739" lon="6.910079">
        <ele>51.106755</ele>
        <time>2026-08-28T14:06:23.037Z</time>
      </trkpt>
      <trkpt lat="50.957854" lon="6.909782">
        <ele>51.021892</ele>
        <time>2026-08-28T14:06:28.552Z</time>
      </trkpt>
      <trkpt lat="50.957945" lon="6.909557">
        <ele>50.909720</ele>
        <time>2026-08-28T14:06:32.952Z</time>
      </trkpt>
      <trkpt lat="50.957999" lon="6.909422">
        <ele>50.838101</ele>
        <time>2026-08-28T14:06:35.731Z</time>
      </trkpt>
      <trkpt lat="50.958089" lon="6.909199">
        <ele>50.719491</ele>
        <time>2026-08-28T14:06:40.331Z</time>
      </trkpt>
      <trkpt lat="50.958305" lon="6.908659">
        <ele>50.433016</ele>
        <time>2026-08-28T14:06:51.195Z</time>
      </trkpt>
      <trkpt lat="50.958436" lon="6.908323">
        <ele>50.256050</ele>
        <time>2026-08-28T14:06:57.317Z</time>
      </trkpt>
      <trkpt lat="50.958720" lon="6.907558">
        <ele>49.858378</ele>
        <time>2026-08-28T14:07:09.812Z</time>
      </trkpt>
      <trkpt lat="50.958898" lon="6.907083">
        <ele>49.561696</ele>
        <time>2026-08-28T14:07:17.271Z</time>
      </trkpt>
      <trkpt lat="50.958932" lon="6.906991">
        <ele>49.494867</ele>
        <time>2026-08-28T14:07:18.701Z</time>
      </trkpt>
      <trkpt lat="50.959014" lon="6.906766">
        <ele>49.332004</ele>
        <time>2026-08-28T14:07:22.256Z</time>
      </trkpt>
      <trkpt lat="50.959137" lon="6.906450">
        <ele>49.099271</ele>
        <time>2026-08-28T14:07:27.442Z</time>
      </trkpt>
      <trkpt lat="50.959322" lon="6.905912">
        <ele>48.715244</ele>
        <time>2026-08-28T14:07:36.193Z</time>
      </trkpt>
      <trkpt lat="50.959351" lon="6.905759">
        <ele>48.615141</ele>
        <time>2026-08-28T14:07:38.511Z</time>
      </trkpt>
      <trkpt lat="50.959406" lon="6.905523">
        <ele>48.457487</ele>
        <time>2026-08-28T14:07:42.361Z</time>
      </trkpt>
      <trkpt lat="50.959438" lon="6.905423">
        <ele>48.387213</ele>
        <time>2026-08-28T14:07:44.104Z</time>
      </trkpt>
      <trkpt lat="50.959494" lon="6.905237">
        <ele>48.258053</ele>
        <time>2026-08-28T14:07:47.333Z</time>
      </trkpt>
      <trkpt lat="50.959518" lon="6.905167">
        <ele>48.208121</ele>
        <time>2026-08-28T14:07:48.630Z</time>
      </trkpt>
      <trkpt lat="50.959697" lon="6.904672">
        <ele>47.949655</ele>
        <time>2026-08-28T14:07:58.396Z</time>
      </trkpt>
      <trkpt lat="50.959881" lon="6.904254">
        <ele>47.965396</ele>
        <time>2026-08-28T14:08:07.613Z</time>
      </trkpt>
      <trkpt lat="50.960020" lon="6.903946">
        <ele>47.977092</ele>
        <time>2026-08-28T14:08:14.850Z</time>
      </trkpt>
      <trkpt lat="50.960443" lon="6.902884">
        <ele>48.015879</ele>
        <time>2026-08-28T14:08:37.961Z</time>
      </trkpt>
      <trkpt lat="50.960020" lon="6.903946">
        <ele>47.901547</ele>
        <time>2026-08-28T14:08:58.953Z</time>
      </trkpt>
      <trkpt lat="50.959881" lon="6.904254">
        <ele>47.830018</ele>
        <time>2026-08-28T14:09:04.883Z</time>
      </trkpt>
      <trkpt lat="50.959697" lon="6.904672">
        <ele>47.733745</ele>
        <time>2026-08-28T14:09:12.870Z</time>
      </trkpt>
      <trkpt lat="50.959518" lon="6.905167">
        <ele>47.625992</ele>
        <time>2026-08-28T14:09:22.105Z</time>
      </trkpt>
      <trkpt lat="50.959494" lon="6.905237">
        <ele>47.610946</ele>
        <time>2026-08-28T14:09:23.445Z</time>
      </trkpt>
      <trkpt lat="50.959438" lon="6.905423">
        <ele>47.572026</ele>
        <time>2026-08-28T14:09:26.894Z</time>
      </trkpt>
      <trkpt lat="50.959406" lon="6.905523">
        <ele>47.550851</ele>
        <time>2026-08-28T14:09:28.843Z</time>
      </trkpt>
      <trkpt lat="50.959322" lon="6.905465">
        <ele>47.523397</ele>
        <time>2026-08-28T14:09:31.984Z</time>
      </trkpt>
      <trkpt lat="50.957731" lon="6.903829">
        <ele>48.513003</ele>
        <time>2026-08-28T14:10:44.240Z</time>
      </trkpt>
      <trkpt lat="50.957709" lon="6.903806">
        <ele>48.535099</ele>
        <time>2026-08-28T14:10:45.251Z</time>
      </trkpt>
      <trkpt lat="50.956979" lon="6.903044">
        <ele>49.276934</ele>
        <time>2026-08-28T14:11:19.730Z</time>
      </trkpt>
      <trkpt lat="50.956899" lon="6.902999">
        <ele>49.349001</ele>
        <time>2026-08-28T14:11:23.177Z</time>
      </trkpt>
      <trkpt lat="50.956862" lon="6.902992">
        <ele>49.380640</ele>
        <time>2026-08-28T14:11:24.723Z</time>
      </trkpt>
      <trkpt lat="50.956825" lon="6.902962">
        <ele>49.415917</ele>
        <time>2026-08-28T14:11:26.382Z</time>
      </trkpt>
      <trkpt lat="50.956736" lon="6.902881">
        <ele>49.503026</ele>
        <time>2026-08-28T14:11:30.487Z</time>
      </trkpt>
      <trkpt lat="50.956664" lon="6.902822">
        <ele>49.571826</ele>
        <time>2026-08-28T14:11:33.738Z</time>
      </trkpt>
      <trkpt lat="50.956618" lon="6.902791">
        <ele>49.614259</ele>
        <time>2026-08-28T14:11:35.717Z</time>
      </trkpt>
      <trkpt lat="50.956505" lon="6.902674">
        <ele>49.728812</ele>
        <time>2026-08-28T14:11:41.090Z</time>
      </trkpt>
      <trkpt lat="50.956435" lon="6.902653">
        <ele>49.789302</ele>
        <time>2026-08-28T14:11:43.901Z</time>
      </trkpt>
      <trkpt lat="50.956186" lon="6.902398">
        <ele>50.040848</ele>
        <time>2026-08-28T14:11:55.478Z</time>
      </trkpt>
      <trkpt lat="50.956052" lon="6.902250">
        <ele>50.107813</ele>
        <time>2026-08-28T14:12:01.721Z</time>
      </trkpt>
      <trkpt lat="50.955981" lon="6.902156">
        <ele>50.145738</ele>
        <time>2026-08-28T14:12:05.238Z</time>
      </trkpt>
      <trkpt lat="50.954876" lon="6.901082">
        <ele>50.677242</ele>
        <time>2026-08-28T14:12:53.544Z</time>
      </trkpt>
      <trkpt lat="50.954792" lon="6.900998">
        <ele>50.717967</ele>
        <time>2026-08-28T14:12:57.027Z</time>
      </trkpt>
      <trkpt lat="50.954000" lon="6.900201">
        <ele>50.439368</ele>
        <time>2026-08-28T14:13:29.113Z</time>
      </trkpt>
      <trkpt lat="50.952686" lon="6.898781">
        <ele>49.749585</ele>
        <time>2026-08-28T14:14:20.491Z</time>
      </trkpt>
      <trkpt lat="50.952583" lon="6.898706">
        <ele>49.699545</ele>
        <time>2026-08-28T14:14:24.229Z</time>
      </trkpt>
      <trkpt lat="50.952476" lon="6.898653">
        <ele>49.650049</ele>
        <time>2026-08-28T14:14:27.937Z</time>
      </trkpt>
      <trkpt lat="50.951357" lon="6.898037">
        <ele>49.191366</ele>
        <time>2026-08-28T14:15:07.929Z</time>
      </trkpt>
      <trkpt lat="50.950923" lon="6.897800">
        <ele>49.142502</ele>
        <time>2026-08-28T14:15:23.934Z</time>
      </trkpt>
      <trkpt lat="50.950590" lon="6.897603">
        <ele>49.104667</ele>
        <time>2026-08-28T14:15:36.329Z</time>
      </trkpt>
      <trkpt lat="50.950170" lon="6.897467">
        <ele>49.059031</ele>
        <time>2026-08-28T14:15:51.270Z</time>
      </trkpt>
      <trkpt lat="50.949843" lon="6.897480">
        <ele>49.024206</ele>
        <time>2026-08-28T14:16:02.917Z</time>
      </trkpt>
      <trkpt lat="50.949030" lon="6.897598">
        <ele>49.160736</ele>
        <time>2026-08-28T14:16:30.891Z</time>
      </trkpt>
      <trkpt lat="50.948761" lon="6.897665">
        <ele>49.209774</ele>
        <time>2026-08-28T14:16:38.070Z</time>
      </trkpt>
      <trkpt lat="50.948681" lon="6.897685">
        <ele>49.224358</ele>
        <time>2026-08-28T14:16:40.336Z</time>
      </trkpt>
      <trkpt lat="50.948135" lon="6.897738">
        <ele>49.322872</ele>
        <time>2026-08-28T14:16:56.011Z</time>
      </trkpt>
      <trkpt lat="50.948048" lon="6.897748">
        <ele>49.338581</ele>
        <time>2026-08-28T14:16:58.710Z</time>
      </trkpt>
      <trkpt lat="50.947393" lon="6.897881">
        <ele>49.724699</ele>
        <time>2026-08-28T14:17:19.310Z</time>
      </trkpt>
      <trkpt lat="50.947252" lon="6.897882">
        <ele>49.809990</ele>
        <time>2026-08-28T14:17:23.739Z</time>
      </trkpt>
      <trkpt lat="50.947191" lon="6.897860">
        <ele>49.847830</ele>
        <time>2026-08-28T14:17:25.698Z</time>
      </trkpt>
      <trkpt lat="50.947077" lon="6.897711">
        <ele>49.937159</ele>
        <time>2026-08-28T14:17:30.491Z</time>
      </trkpt>
      <trkpt lat="50.946984" lon="6.897732">
        <ele>49.993981</ele>
        <time>2026-08-28T14:17:35.188Z</time>
      </trkpt>
      <trkpt lat="50.946952" lon="6.897737">
        <ele>50.013431</ele>
        <time>2026-08-28T14:17:36.771Z</time>
      </trkpt>
      <trkpt lat="50.946779" lon="6.897760">
        <ele>50.118445</ele>
        <time>2026-08-28T14:17:45.021Z</time>
      </trkpt>
      <trkpt lat="50.946106" lon="6.897812">
        <ele>50.417084</ele>
        <time>2026-08-28T14:18:15.536Z</time>
      </trkpt>
      <trkpt lat="50.946027" lon="6.897829">
        <ele>50.409302</ele>
        <time>2026-08-28T14:18:18.938Z</time>
      </trkpt>
      <trkpt lat="50.945949" lon="6.897839">
        <ele>50.401664</ele>
        <time>2026-08-28T14:18:22.259Z</time>
      </trkpt>
      <trkpt lat="50.945797" lon="6.897877">
        <ele>50.386645</ele>
        <time>2026-08-28T14:18:28.744Z</time>
      </trkpt>
      <trkpt lat="50.945451" lon="6.897942">
        <ele>50.352638</ele>
        <time>2026-08-28T14:18:43.198Z</time>
      </trkpt>
      <trkpt lat="50.945208" lon="6.897988">
        <ele>50.328751</ele>
        <time>2026-08-28T14:18:53.518Z</time>
      </trkpt>
      <trkpt lat="50.945221" lon="6.898133">
        <ele>50.319744</ele>
        <time>2026-08-28T14:18:56.609Z</time>
      </trkpt>
      <trkpt lat="50.944832" lon="6.898190">
        <ele>50.281614</ele>
        <time>2026-08-28T14:19:06.878Z</time>
      </trkpt>
      <trkpt lat="50.944778" lon="6.898197">
        <ele>50.276326</ele>
        <time>2026-08-28T14:19:08.487Z</time>
      </trkpt>
      <trkpt lat="50.944205" lon="6.898289">
        <ele>50.568517</ele>
        <time>2026-08-28T14:19:25.415Z</time>
      </trkpt>
      <trkpt lat="50.944140" lon="6.898301">
        <ele>50.623016</ele>
        <time>2026-08-28T14:19:27.382Z</time>
      </trkpt>
      <trkpt lat="50.943476" lon="6.898421">
        <ele>51.179587</ele>
        <time>2026-08-28T14:19:48.731Z</time>
      </trkpt>
      <trkpt lat="50.942778" lon="6.898546">
        <ele>51.763300</ele>
        <time>2026-08-28T14:20:10.638Z</time>
      </trkpt>
      <trkpt lat="50.942174" lon="6.898662">
        <ele>52.204514</ele>
        <time>2026-08-28T14:20:29.530Z</time>
      </trkpt>
      <trkpt lat="50.942029" lon="6.898689">
        <ele>52.310388</ele>
        <time>2026-08-28T14:20:34.026Z</time>
      </trkpt>
      <trkpt lat="50.941932" lon="6.898708">
        <ele>52.381266</ele>
        <time>2026-08-28T14:20:37.010Z</time>
      </trkpt>
      <trkpt lat="50.941812" lon="6.898721">
        <ele>52.468492</ele>
        <time>2026-08-28T14:20:40.670Z</time>
      </trkpt>
      <trkpt lat="50.941341" lon="6.898783">
        <ele>52.811232</ele>
        <time>2026-08-28T14:20:54.797Z</time>
      </trkpt>
      <trkpt lat="50.941049" lon="6.898836">
        <ele>53.024369</ele>
        <time>2026-08-28T14:21:03.589Z</time>
      </trkpt>
      <trkpt lat="50.940012" lon="6.899087">
        <ele>53.148346</ele>
        <time>2026-08-28T14:21:32.745Z</time>
      </trkpt>
      <trkpt lat="50.939968" lon="6.899099">
        <ele>53.152331</ele>
        <time>2026-08-28T14:21:33.878Z</time>
      </trkpt>
      <trkpt lat="50.939734" lon="6.899184">
        <ele>53.173755</ele>
        <time>2026-08-28T14:21:39.882Z</time>
      </trkpt>
      <trkpt lat="50.939022" lon="6.899555">
        <ele>53.234784</ele>
        <time>2026-08-28T14:21:59.520Z</time>
      </trkpt>
      <trkpt lat="50.938654" lon="6.899750">
        <ele>53.259818</ele>
        <time>2026-08-28T14:22:09.336Z</time>
      </trkpt>
      <trkpt lat="50.938497" lon="6.899815">
        <ele>53.270288</ele>
        <time>2026-08-28T14:22:13.289Z</time>
      </trkpt>
      <trkpt lat="50.938008" lon="6.899976">
        <ele>53.302512</ele>
        <time>2026-08-28T14:22:26.844Z</time>
      </trkpt>
      <trkpt lat="50.937369" lon="6.900135">
        <ele>53.373434</ele>
        <time>2026-08-28T14:22:46.266Z</time>
      </trkpt>
      <trkpt lat="50.937293" lon="6.900245">
        <ele>53.402391</ele>
        <time>2026-08-28T14:22:49.275Z</time>
      </trkpt>
      <trkpt lat="50.937095" lon="6.900484">
        <ele>53.472420</ele>
        <time>2026-08-28T14:22:56.263Z</time>
      </trkpt>
      <trkpt lat="50.937022" lon="6.900529">
        <ele>53.494466</ele>
        <time>2026-08-28T14:22:58.387Z</time>
      </trkpt>
      <trkpt lat="50.937018" lon="6.900817">
        <ele>53.545568</ele>
        <time>2026-08-28T14:23:04.832Z</time>
      </trkpt>
      <trkpt lat="50.936987" lon="6.902123">
        <ele>53.777409</ele>
        <time>2026-08-28T14:23:35.530Z</time>
      </trkpt>
      <trkpt lat="50.936959" lon="6.903332">
        <ele>53.533944</ele>
        <time>2026-08-28T14:24:01.359Z</time>
      </trkpt>
      <trkpt lat="50.936954" lon="6.903526">
        <ele>53.463299</ele>
        <time>2026-08-28T14:24:05.508Z</time>
      </trkpt>
      <trkpt lat="50.936899" lon="6.906621">
        <ele>51.977905</ele>
        <time>2026-08-28T14:25:07.658Z</time>
      </trkpt>
      <trkpt lat="50.936880" lon="6.907795">
        <ele>51.222032</ele>
        <time>2026-08-28T14:25:30.195Z</time>
      </trkpt>
      <trkpt lat="50.936875" lon="6.907938">
        <ele>51.129851</ele>
        <time>2026-08-28T14:25:32.968Z</time>
      </trkpt>
      <trkpt lat="50.936871" lon="6.908130">
        <ele>51.006206</ele>
        <time>2026-08-28T14:25:36.701Z</time>
      </trkpt>
      <trkpt lat="50.936871" lon="6.908217">
        <ele>50.960918</ele>
        <time>2026-08-28T14:25:38.374Z</time>
      </trkpt>
      <trkpt lat="50.936848" lon="6.908613">
        <ele>50.874872</ele>
        <time>2026-08-28T14:25:46.147Z</time>
      </trkpt>
      <trkpt lat="50.936848" lon="6.908681">
        <ele>50.860158</ele>
        <time>2026-08-28T14:25:47.487Z</time>
      </trkpt>
      <trkpt lat="50.936844" lon="6.908766">
        <ele>50.841715</ele>
        <time>2026-08-28T14:25:49.185Z</time>
      </trkpt>
      <trkpt lat="50.936841" lon="6.908828">
        <ele>50.828261</ele>
        <time>2026-08-28T14:25:50.475Z</time>
      </trkpt>
      <trkpt lat="50.936773" lon="6.911312">
        <ele>50.305298</ele>
        <time>2026-08-28T14:26:45.309Z</time>
      </trkpt>
      <trkpt lat="50.936728" lon="6.912683">
        <ele>50.084492</ele>
        <time>2026-08-28T14:27:14.472Z</time>
      </trkpt>
      <trkpt lat="50.936724" lon="6.912788">
        <ele>50.067573</ele>
        <time>2026-08-28T14:27:16.624Z</time>
      </trkpt>
      <trkpt lat="50.936719" lon="6.912884">
        <ele>50.052080</ele>
        <time>2026-08-28T14:27:18.645Z</time>
      </trkpt>
      <trkpt lat="50.936670" lon="6.914666">
        <ele>49.968623</ele>
        <time>2026-08-28T14:27:56.532Z</time>
      </trkpt>
      <trkpt lat="50.936658" lon="6.915025">
        <ele>50.005263</ele>
        <time>2026-08-28T14:28:04.638Z</time>
      </trkpt>
      <trkpt lat="50.936631" lon="6.916048">
        <ele>50.109617</ele>
        <time>2026-08-28T14:28:28.501Z</time>
      </trkpt>
      <trkpt lat="50.936626" lon="6.916297">
        <ele>50.135008</ele>
        <time>2026-08-28T14:28:34.372Z</time>
      </trkpt>
      <trkpt lat="50.936597" lon="6.916948">
        <ele>50.179514</ele>
        <time>2026-08-28T14:28:49.783Z</time>
      </trkpt>
      <trkpt lat="50.936586" lon="6.917187">
        <ele>50.178233</ele>
        <time>2026-08-28T14:28:55.382Z</time>
      </trkpt>
      <trkpt lat="50.936582" lon="6.917469">
        <ele>50.176725</ele>
        <time>2026-08-28T14:29:01.867Z</time>
      </trkpt>
      <trkpt lat="50.936560" lon="6.918486">
        <ele>50.171285</ele>
        <time>2026-08-28T14:29:24.442Z</time>
      </trkpt>
      <trkpt lat="50.936541" lon="6.920095">
        <ele>50.147903</ele>
        <time>2026-08-28T14:29:58.250Z</time>
      </trkpt>
      <trkpt lat="50.936518" lon="6.921954">
        <ele>50.082955</ele>
        <time>2026-08-28T14:30:40.157Z</time>
      </trkpt>
      <trkpt lat="50.936518" lon="6.922071">
        <ele>50.078868</ele>
        <time>2026-08-28T14:30:42.821Z</time>
      </trkpt>
      <trkpt lat="50.936516" lon="6.922562">
        <ele>50.057711</ele>
        <time>2026-08-28T14:30:53.559Z</time>
      </trkpt>
      <trkpt lat="50.936506" lon="6.923134">
        <ele>50.017401</ele>
        <time>2026-08-28T14:31:05.781Z</time>
      </trkpt>
      <trkpt lat="50.936503" lon="6.924112">
        <ele>49.948505</ele>
        <time>2026-08-28T14:31:27.629Z</time>
      </trkpt>
      <trkpt lat="50.936504" lon="6.924243">
        <ele>49.939276</ele>
        <time>2026-08-28T14:31:29.709Z</time>
      </trkpt>
      <trkpt lat="50.936501" lon="6.924414">
        <ele>49.927225</ele>
        <time>2026-08-28T14:31:32.339Z</time>
      </trkpt>
      <trkpt lat="50.936484" lon="6.924474">
        <ele>49.922591</ele>
        <time>2026-08-28T14:31:33.747Z</time>
      </trkpt>
      <trkpt lat="50.936481" lon="6.924566">
        <ele>49.916101</ele>
        <time>2026-08-28T14:31:35.212Z</time>
      </trkpt>
      <trkpt lat="50.936478" lon="6.924634">
        <ele>49.911299</ele>
        <time>2026-08-28T14:31:36.239Z</time>
      </trkpt>
      <trkpt lat="50.936475" lon="6.924744">
        <ele>49.903543</ele>
        <time>2026-08-28T14:31:39.204Z</time>
      </trkpt>
      <trkpt lat="50.936472" lon="6.924805">
        <ele>49.899232</ele>
        <time>2026-08-28T14:31:40.164Z</time>
      </trkpt>
      <trkpt lat="50.936468" lon="6.924990">
        <ele>49.886192</ele>
        <time>2026-08-28T14:31:43.026Z</time>
      </trkpt>
      <trkpt lat="50.936483" lon="6.925725">
        <ele>49.972861</ele>
        <time>2026-08-28T14:31:55.032Z</time>
      </trkpt>
      <trkpt lat="50.936484" lon="6.925821">
        <ele>49.997104</ele>
        <time>2026-08-28T14:31:56.687Z</time>
      </trkpt>
      <trkpt lat="50.936550" lon="6.925912">
        <ele>50.032135</ele>
        <time>2026-08-28T14:31:59.873Z</time>
      </trkpt>
      <trkpt lat="50.936535" lon="6.928459">
        <ele>50.741682</ele>
        <time>2026-08-28T14:32:47.733Z</time>
      </trkpt>
      <trkpt lat="50.936517" lon="6.928766">
        <ele>50.876981</ele>
        <time>2026-08-28T14:32:53.158Z</time>
      </trkpt>
      <trkpt lat="50.936447" lon="6.929131">
        <ele>51.044402</ele>
        <time>2026-08-28T14:32:59.889Z</time>
      </trkpt>
      <trkpt lat="50.936413" lon="6.929239">
        <ele>51.097379</ele>
        <time>2026-08-28T14:33:02.062Z</time>
      </trkpt>
      <trkpt lat="50.936254" lon="6.929552">
        <ele>51.273798</ele>
        <time>2026-08-28T14:33:09.562Z</time>
      </trkpt>
      <trkpt lat="50.935764" lon="6.930095">
        <ele>51.689970</ele>
        <time>2026-08-28T14:33:27.580Z</time>
      </trkpt>
      <trkpt lat="50.935627" lon="6.930272">
        <ele>51.812989</ele>
        <time>2026-08-28T14:33:33.054Z</time>
      </trkpt>
      <trkpt lat="50.935556" lon="6.930448">
        <ele>51.956603</ele>
        <time>2026-08-28T14:33:37.258Z</time>
      </trkpt>
      <trkpt lat="50.935508" lon="6.930651">
        <ele>52.125485</ele>
        <time>2026-08-28T14:33:41.796Z</time>
      </trkpt>
      <trkpt lat="50.935500" lon="6.931048">
        <ele>52.434870</ele>
        <time>2026-08-28T14:33:50.188Z</time>
      </trkpt>
      <trkpt lat="50.935497" lon="6.931314">
        <ele>52.642093</ele>
        <time>2026-08-28T14:33:55.686Z</time>
      </trkpt>
      <trkpt lat="50.935486" lon="6.932417">
        <ele>53.501339</ele>
        <time>2026-08-28T14:34:18.917Z</time>
      </trkpt>
      <trkpt lat="50.935485" lon="6.932533">
        <ele>53.591701</ele>
        <time>2026-08-28T14:34:21.301Z</time>
      </trkpt>
      <trkpt lat="50.935492" lon="6.932702">
        <ele>53.723621</ele>
        <time>2026-08-28T14:34:24.848Z</time>
      </trkpt>
      <trkpt lat="50.935482" lon="6.933214">
        <ele>54.090917</ele>
        <time>2026-08-28T14:34:35.363Z</time>
      </trkpt>
      <trkpt lat="50.935480" lon="6.933304">
        <ele>54.125094</ele>
        <time>2026-08-28T14:34:37.236Z</time>
      </trkpt>
      <trkpt lat="50.935455" lon="6.934545">
        <ele>54.596299</ele>
        <time>2026-08-28T14:35:01.217Z</time>
      </trkpt>
      <trkpt lat="50.935790" lon="6.934553">
        <ele>54.798058</ele>
        <time>2026-08-28T14:35:11.352Z</time>
      </trkpt>
      <trkpt lat="50.935823" lon="6.934554">
        <ele>54.817935</ele>
        <time>2026-08-28T14:35:12.342Z</time>
      </trkpt>
      <trkpt lat="50.936526" lon="6.934584">
        <ele>55.143943</ele>
        <time>2026-08-28T14:35:31.557Z</time>
      </trkpt>
      <trkpt lat="50.936589" lon="6.934585">
        <ele>55.143943</ele>
        <time>2026-08-28T14:35:33.083Z</time>
      </trkpt>
      <trkpt lat="50.936567" lon="6.936549">
        <ele>55.143943</ele>
        <time>2026-08-28T14:36:59.089Z</time>
      </trkpt>
    </trkseg>
  </trk>
</gpx>